HOURLY OBS INDEX

009

Lower West, Southwest & South Coast

ALBANY AIRPORT

Site: 009999
Alt: 68.4m
10km NW of ALBANY


  Time     Wind        Temp  DP   Baro     Rain since   Rain past  Vis(m), Cloud(base in m), Weather
  local        km/h                         9am  last   hr   10m    
Tue 04:00   NE 17/ 22  12.6 10.8  1023.2    0.0   0.0   0.0   0.0   10000 
Tue 04:30   NE 17/ 20  12.2 10.6  1023.4    0.0   0.0   0.0   0.0   10000 
Tue 05:00  ENE 15/ 19  11.8 10.5  1023.3    0.0   0.0   0.0   0.0   10000 
Tue 05:30   NE 13/ 15  11.5 10.4  1023.6    0.0   0.0   0.0   0.0   10000 
Tue 06:00  ENE 17/ 20  11.6 10.7  1023.5    0.0   0.0   0.0   0.0   10000 
Tue 06:30  ENE 17/ 20  11.8 10.7  1023.5    0.0   0.0   0.0   0.0   10000 
Tue 07:00   NE 17/ 26  12.6 11.2  1023.4    0.0   0.0   0.0   0.0   10000 
Tue 07:30   NE 19/ 28  13.8 11.5  1023.5    0.0   0.0   0.0   0.0   10000 
Tue 08:00  ENE 20/ 28  15.0 11.8  1023.5    0.0   0.0   0.0   0.0   10000 
Tue 08:30   NE 20/ 28  16.0 11.6  1023.4    0.0   0.0   0.0   0.0   10000 
Tue 09:00   NE 20/ 26  17.9 12.1  1023.1    0.0   0.0   0.0   0.0   10000 
Tue 09:30   NE 19/ 24  18.6 11.7  1023.1    0.0   0.0   0.0   0.0   10000 

BADGINGARRA AG STATION

Site: 009GBA
Alt: 284 m
56km NW of MOORA


  Time     Wind        Temp  DP   Baro     Rain since   Rain past  Vis(m), Cloud(base in m), Weather
  local        km/h                         9am  last   hr   10m    
Tue 04:00    E 22/ 35  18.0  3.4  ------    0.0   0.0   0.0   0.0   ----- 
Tue 04:30    E 22/ 32  17.8  3.5  ------    0.0   0.0   0.0   0.0   ----- 
Tue 05:00    E 20/ 33  17.3  3.4  ------    0.0   0.0   0.0   0.0   ----- 
Tue 05:30  ENE 20/ 33  17.5  3.7  ------    0.0   0.0   0.0   0.0   ----- 
Tue 06:00    E 20/ 32  17.2  3.7  ------    0.0   0.0   0.0   0.0   ----- 
Tue 06:30    E 20/ 30  17.0  3.8  ------    0.0   0.0   0.0   0.0   ----- 
Tue 07:00  ENE 20/ 30  17.7  4.0  ------    0.0   0.0   0.0   0.0   ----- 
Tue 07:30  ENE 22/ 33  18.6  4.1  ------    0.0   0.0   0.0   0.0   ----- 
Tue 08:00  ENE 24/ 35  19.9  4.2  ------    0.0   0.0   0.0   0.0   ----- 
Tue 08:30  ENE 28/ 41  21.8  4.3  ------    0.0   0.0   0.0   0.0   ----- 
Tue 09:00  ENE 26/ 39  23.8  4.4  ------    0.0   0.0   0.0   0.0   ----- 
Tue 09:30  ENE 24/ 39  25.2  4.4  ------    0.0   0.0   0.0   0.0   ----- 

BADGINGARRA RESEARCH STN

Site: 009037
Alt: 275.0m
55km NW of MOORA


  Time     Wind        Temp  DP   Baro     Rain since   Rain past  Vis(m), Cloud(base in m), Weather
  local        km/h                         9am  last   hr   10m    
Tue 04:00  ENE 30/ 37  17.9  4.1  ------    0.0   0.0   0.0   0.0   ----- 
Tue 04:30  ENE 30/ 39  17.6  4.2  ------    0.0   0.0   0.0   0.0   ----- 
Tue 05:00  ENE 28/ 35  17.2  4.2  ------    0.0   0.0   0.0   0.0   ----- 
Tue 05:30  ENE 28/ 41  17.2  4.2  ------    0.0   0.0   0.0   0.0   ----- 
Tue 06:00  ENE 26/ 35  17.1  4.4  ------    0.0   0.0   0.0   0.0   ----- 
Tue 06:30  ENE 26/ 37  16.8  4.5  ------    0.0   0.0   0.0   0.0   ----- 
Tue 07:00  ENE 26/ 35  17.4  4.7  ------    0.0   0.0   0.0   0.0   ----- 
Tue 07:30  ENE 28/ 39  18.3  4.8  ------    0.0   0.0   0.0   0.0   ----- 
Tue 08:00  ENE 30/ 41  19.6  4.5  ------    0.0   0.0   0.0   0.0   ----- 
Tue 08:30  ENE 37/ 48  21.2  4.7  ------    0.0   0.0   0.0   0.0   ----- 
Tue 09:00   NE 32/ 46  23.5  4.9  ------    0.0   0.0   0.0   0.0   ----- 
Tue 09:30   NE 32/ 43  25.1  4.8  ------    0.0   0.0   0.0   0.0   ----- 

BICKLEY

Site: 009240
Alt: 384.0m
27km ESE of PERTH CBD


  Time     Wind        Temp  DP   Baro     Rain since   Rain past  Vis(m), Cloud(base in m), Weather
  local        km/h                         9am  last   hr   10m    
Tue 04:00    E 32/ 46  13.3  4.7  ------    0.0   0.0   0.0   0.0   ----- 
Tue 04:30    E 32/ 46  13.1  5.0  ------    0.0   0.0   0.0   0.0   ----- 
Tue 04:39    E 30/ 50  13.0  5.2  ------    0.0   0.0  ----   0.0   ----- 
Tue 05:00    E 32/ 45  12.8  5.5  ------    0.0   0.0   0.0   0.0   ----- 
Tue 05:19    E 30/ 48  12.7  5.6  ------    0.0   0.0  ----   0.0   ----- 
Tue 05:30    E 32/ 46  12.6  5.8  ------    0.0   0.0   0.0   0.0   ----- 
Tue 05:33    E 32/ 52  12.6  5.8  ------    0.0   0.0  ----   0.0   ----- 
Tue 06:00    E 30/ 45  12.4  5.6  ------    0.0   0.0   0.0   0.0   ----- 
Tue 06:30    E 26/ 39  12.0  5.6  ------    0.0   0.0   0.0   0.0   ----- 
Tue 07:00    E 28/ 41  12.5  5.9  ------    0.0   0.0   0.0   0.0   ----- 
Tue 07:02    E 28/ 46  12.5  5.9  ------    0.0   0.0  ----   0.0   ----- 
Tue 07:30    E 26/ 39  13.1  6.0  ------    0.0   0.0   0.0   0.0   ----- 
Tue 08:00    E 28/ 45  14.3  6.2  ------    0.0   0.0   0.0   0.0   ----- 
Tue 08:14  ENE 28/ 48  15.4  6.4  ------    0.0   0.0  ----   0.0   ----- 
Tue 08:30    E 28/ 45  16.2  6.3  ------    0.0   0.0   0.0   0.0   ----- 
Tue 09:00  ENE 28/ 43  18.5  6.4  ------    0.0   0.0   0.0   0.0   ----- 
Tue 09:30  ENE 26/ 45  20.8  6.7  ------    0.0   0.0   0.0   0.0   ----- 
Tue 09:31  ENE 28/ 46  21.0  6.9  ------    0.0   0.0  ----   0.0   ----- 

BREMER BAY AG STATION

Site: 009UPW
Alt: 100m
41km ENE of ESPERANCE


  Time     Wind        Temp  DP   Baro     Rain since   Rain past  Vis(m), Cloud(base in m), Weather
  local        km/h                         9am  last   hr   10m    
Tue 04:00    E  4/  7   8.0  7.0  ------    0.0   0.0   0.0   0.0   ----- 
Tue 04:30   NE  4/  6   6.4  5.4  ------    0.0   0.0   0.0   0.0   ----- 
Tue 05:00    N  4/  7   7.5  6.6  ------    0.0   0.0   0.0   0.0   ----- 
Tue 05:30    N  2/  6   8.0  7.1  ------    0.0   0.0   0.0   0.0   ----- 
Tue 06:00    C  0/  2   8.7  7.8  ------    0.0   0.0   0.0   0.0   ----- 
Tue 06:30    C  0/  2   9.9  8.9  ------    0.0   0.0   0.0   0.0   ----- 
Tue 07:00    E  2/  7  11.8 10.5  ------    0.0   0.0   0.0   0.0   ----- 
Tue 07:30  ENE  7/ 11  13.8 10.5  ------    0.0   0.0   0.0   0.0   ----- 
Tue 08:00   NE  9/ 15  15.1 10.4  ------    0.0   0.0   0.0   0.0   ----- 
Tue 08:30   NE 13/ 20  16.1 10.5  ------    0.0   0.0   0.0   0.0   ----- 
Tue 09:00  ENE 17/ 28  17.0 10.6  ------    0.0   0.0   0.0   0.0   ----- 
Tue 09:30   NE 17/ 30  18.0 10.2  ------    0.0   0.0   0.0   0.0   ----- 

BRIDGETOWN

Site: 009617
Alt: 178.7m
33km N of MANJIMUP


  Time     Wind        Temp  DP   Baro     Rain since   Rain past  Vis(m), Cloud(base in m), Weather
  local        km/h                         9am  last   hr   10m    
Tue 04:00  SSE  4/  9  11.6  8.8  1021.5    0.0   0.0   0.0   0.0   ----- 
Tue 04:30   SE  4/  6  11.6  9.3  1021.6    0.0   0.0   0.0   0.0   ----- 
Tue 05:00  SSE  2/  6  11.4  9.3  1021.8    0.0   0.0   0.0   0.0   ----- 
Tue 05:30  SSW  2/  7  10.5  8.8  1021.6    0.0   0.0   0.0   0.0   ----- 
Tue 06:00    S  4/  7  10.6  9.2  1021.6    0.0   0.0   0.0   0.0   ----- 
Tue 06:30    C  0/  4  10.4  9.0  1021.9    0.0   0.0   0.0   0.0   ----- 
Tue 07:00    C  0/  0  10.2  9.0  1021.9    0.0   0.0   0.0   0.0   ----- 
Tue 07:30    C  0/  0  12.1 10.5  1022.0    0.0   0.0   0.0   0.0   ----- 
Tue 08:00    E  2/  9  13.8  9.6  1022.3    0.0   0.0   0.0   0.0   ----- 
Tue 08:30  ENE  6/ 13  15.7  9.6  1022.2    0.0   0.0   0.0   0.0   ----- 
Tue 09:00  ENE  7/ 17  17.2  9.4  1022.0    0.0   0.0   0.0   0.0   ----- 
Tue 09:30   NE 11/ 20  18.7  9.2  1021.7    0.0   0.0   0.0   0.0   ----- 

BUNBURY

Site: 009965
Alt: 5.2m
2km S of BUNBURY


  Time     Wind        Temp  DP   Baro     Rain since   Rain past  Vis(m), Cloud(base in m), Weather
  local        km/h                         9am  last   hr   10m    
Tue 04:00    E 13/ 20  14.9  8.6  1019.8    0.0   0.0   0.0   0.0   ----- 
Tue 04:30    E 13/ 20  14.6  8.5  1019.9    0.0   0.0   0.0   0.0   ----- 
Tue 05:00    E 13/ 19  14.3  8.5  1020.2    0.0   0.0   0.0   0.0   ----- 
Tue 05:30    E 15/ 22  14.3  8.5  1020.1    0.0   0.0   0.0   0.0   ----- 
Tue 06:00    E 15/ 22  14.0  8.4  1020.4    0.0   0.0   0.0   0.0   ----- 
Tue 06:30    E 13/ 19  14.0  8.4  1020.6    0.0   0.0   0.0   0.0   ----- 
Tue 07:00    E 13/ 17  14.5  8.7  1020.6    0.0   0.0   0.0   0.0   ----- 
Tue 07:30    E  9/ 13  15.9  8.9  1020.7    0.0   0.0   0.0   0.0   ----- 
Tue 08:00    E  9/ 15  17.6  9.2  1020.9    0.0   0.0   0.0   0.0   ----- 
Tue 08:30  ENE 11/ 17  19.3  8.6  1020.8    0.0   0.0   0.0   0.0   ----- 
Tue 09:00  ENE 15/ 24  20.6  8.6  1020.4    0.0   0.0   0.0   0.0   ----- 
Tue 09:30  ENE 15/ 22  22.0  8.5  1020.0    0.0   0.0   0.0   0.0   ----- 

BUSSELTON AERO

Site: 009603
Alt: 16.3m
5km ESE of BUSSELTON


  Time     Wind        Temp  DP   Baro     Rain since   Rain past  Vis(m), Cloud(base in m), Weather
  local        km/h                         9am  last   hr   10m    
Tue 04:00    E 11/ 15  13.2  8.1  1019.9    0.0   0.0   0.0   0.0   ----- 
Tue 04:30    E 13/ 15  12.7  8.0  1020.0    0.0   0.0   0.0   0.0   ----- 
Tue 05:00    E 13/ 15  11.9  7.8  1020.0    0.0   0.0   0.0   0.0   ----- 
Tue 05:30  ESE  7/ 11  11.3  7.6  1020.2    0.0   0.0   0.0   0.0   ----- 
Tue 06:00  ESE  7/  9  10.8  7.5  1020.4    0.0   0.0   0.0   0.0   ----- 
Tue 06:30  ESE  7/  9  11.1  8.0  1020.5    0.0   0.0   0.0   0.0   ----- 
Tue 07:00    E  7/ 11  12.0  8.8  1020.7    0.0   0.0   0.0   0.0   ----- 
Tue 07:30    E  9/ 13  13.9  9.1  1020.8    0.0   0.0   0.0   0.0   ----- 
Tue 08:00    E 13/ 19  15.5  9.2  1020.9    0.0   0.0   0.0   0.0   ----- 
Tue 08:30    E 17/ 20  17.2  9.1  1020.7    0.0   0.0   0.0   0.0   ----- 
Tue 09:00    E 20/ 26  18.8  8.7  1020.5    0.0   0.0   0.0   0.0   ----- 
Tue 09:30  ENE 20/ 26  20.5  8.8  1020.1    0.0   0.0   0.0   0.0   ----- 

BUSSELTON JETTY

Site: 009937
Alt: 3.0m
4km NNW of BUSSELTON


  Time     Wind        Temp  DP   Baro     Rain since   Rain past  Vis(m), Cloud(base in m), Weather
  local        km/h                         9am  last   hr   10m    
Tue 04:00    E 22/ 30 --------  ------   ----  ----  ----  ----   ----- 
Tue 04:30    E 26/ 32 --------  ------   ----  ----  ----  ----   ----- 
Tue 05:00    E 24/ 30 --------  ------   ----  ----  ----  ----   ----- 
Tue 05:30    E 22/ 30 --------  ------   ----  ----  ----  ----   ----- 
Tue 06:00    E 22/ 26 --------  ------   ----  ----  ----  ----   ----- 
Tue 06:30    E 17/ 20 --------  ------   ----  ----  ----  ----   ----- 
Tue 07:00    E 20/ 24 --------  ------   ----  ----  ----  ----   ----- 
Tue 07:30    E 20/ 26 --------  ------   ----  ----  ----  ----   ----- 
Tue 08:00    E 19/ 24 --------  ------   ----  ----  ----  ----   ----- 
Tue 08:30    E 20/ 24 --------  ------   ----  ----  ----  ----   ----- 
Tue 09:00    E 19/ 22 --------  ------   ----  ----  ----  ----   ----- 
Tue 09:30    E 20/ 26 --------  ------   ----  ----  ----  ----   ----- 

CAPE LEEUWIN

Site: 009518
Alt: 13.0m
47km S of MARGARET RIVER


  Time     Wind        Temp  DP   Baro     Rain since   Rain past  Vis(m), Cloud(base in m), Weather
  local        km/h                         9am  last   hr   10m    
Tue 04:00  ENE 43/ 46  15.1 10.7  1019.8    0.0   0.0   0.0   0.0   ----- 
Tue 04:30  ENE 41/ 46  15.0 10.4  1019.8    0.0   0.0   0.0   0.0   ----- 
Tue 05:00  ENE 39/ 45  14.7 10.5  1019.7    0.0   0.0   0.0   0.0   ----- 
Tue 05:30  ENE 39/ 45  14.3 10.5  1019.8    0.0   0.0   0.0   0.0   ----- 
Tue 06:00  ENE 41/ 46  13.8 10.1  1019.6    0.0   0.0   0.0   0.0   ----- 
Tue 06:30   NE 43/ 50  13.6  9.5  1019.6    0.0   0.0   0.0   0.0   ----- 
Tue 07:00   NE 35/ 46  14.0  9.3  1019.8    0.0   0.0   0.0   0.0   ----- 
Tue 07:30   NE 41/ 52  14.9  9.2  1019.9    0.0   0.0   0.0   0.0   ----- 
Tue 08:00   NE 39/ 54  15.6  9.4  1020.1    0.0   0.0   0.0   0.0   ----- 
Tue 08:30   NE 39/ 54  16.2  9.0  1019.7    0.0   0.0   0.0   0.0   ----- 
Tue 09:00  NNE 41/ 54  16.9  8.9  1019.7    0.0   0.0   0.0   0.0   ----- 
Tue 09:30  NNE 39/ 54  18.5  8.6  1019.4    0.0   0.0   0.0   0.0   ----- 

CAPE NATURALISTE

Site: 009519
Alt: 109.0m
34km WNW of BUSSELTON


  Time     Wind        Temp  DP   Baro     Rain since   Rain past  Vis(m), Cloud(base in m), Weather
  local        km/h                         9am  last   hr   10m    
Tue 04:00    E 33/ 45  15.3 10.1  1019.3    0.0   0.0   0.0   0.0   ----- 
Tue 04:30    E 33/ 41  15.2 10.4  1019.5    0.0   0.0   0.0   0.0   ----- 
Tue 05:00    E 33/ 41  15.1 10.3  1019.3    0.0   0.0   0.0   0.0   ----- 
Tue 05:30    E 35/ 45  14.9 10.1  1019.4    0.0   0.0   0.0   0.0   ----- 
Tue 06:00    E 35/ 43  14.8 10.2  1019.6    0.0   0.0   0.0   0.0   ----- 
Tue 06:30    E 33/ 43  14.9 10.5  1019.6    0.0   0.0   0.0   0.0   ----- 
Tue 07:00    E 35/ 43  15.7 10.9  1019.8    0.0   0.0   0.0   0.0   ----- 
Tue 07:30    E 33/ 43  16.1 10.8  1020.1    0.0   0.0   0.0   0.0   ----- 
Tue 08:00    E 32/ 41  16.8 11.1  1020.2    0.0   0.0   0.0   0.0   ----- 
Tue 08:30    E 33/ 41  18.1 11.4  1019.9    0.0   0.0   0.0   0.0   ----- 
Tue 09:00    E 32/ 45  19.0 12.0  1019.9    0.0   0.0   0.0   0.0   ----- 
Tue 09:30    E 30/ 39  19.4 11.7  1019.9    0.0   0.0   0.0   0.0   ----- 

COLLIE EAST

Site: 009994
Alt: 200.0m
2km ESE of COLLIE


  Time     Wind        Temp  DP   Baro     Rain since   Rain past  Vis(m), Cloud(base in m), Weather
  local        km/h                         9am  last   hr   10m    
Tue 04:00  ESE  6/ 11  12.3  8.0  ------    0.0   0.0   0.0   0.0   ----- 
Tue 04:30  ESE  2/  7  12.0  8.1  ------    0.0   0.0   0.0   0.0   ----- 
Tue 05:00   SE  4/  7  10.7  7.6  ------    0.0   0.0   0.0   0.0   ----- 
Tue 05:30    C  0/  0   9.7  7.3  ------    0.0   0.0   0.0   0.0   ----- 
Tue 06:00    C  0/  0   8.7  6.5  ------    0.0   0.0   0.0   0.0   ----- 
Tue 06:30    C  0/  7   8.3  6.4  ------    0.0   0.0   0.0   0.0   ----- 
Tue 07:00    C  0/  0   9.1  7.4  ------    0.0   0.0   0.0   0.0   ----- 
Tue 07:30  SSE  2/  7  12.2  9.8  ------    0.0   0.0   0.0   0.0   ----- 
Tue 08:00  ESE  7/ 15  14.6  8.8  ------    0.0   0.0   0.0   0.0   ----- 
Tue 08:30    E 11/ 17  16.7  9.1  ------    0.0   0.0   0.0   0.0   ----- 
Tue 09:00    E 11/ 20  18.0  8.6  ------    0.0   0.0   0.0   0.0   ----- 
Tue 09:30  ENE 11/ 22  20.3  9.2  ------    0.0   0.0   0.0   0.0   ----- 

COOMALBIDGUP AG STATION

Site: 009MLP
Alt: 90m
57km WNW of ESPERANCE


  Time     Wind        Temp  DP   Baro     Rain since   Rain past  Vis(m), Cloud(base in m), Weather
  local        km/h                         9am  last   hr   10m    
Tue 04:00  ENE  4/ 11  11.6  9.0  ------    0.0   0.0   0.0   0.0   ----- 
Tue 04:30  ENE  4/ 11  11.2  8.8  ------    0.0   0.0   0.0   0.0   ----- 
Tue 05:00  ENE  6/  9  11.1  8.9  ------    0.0   0.0   0.0   0.0   ----- 
Tue 05:30  ENE  6/  9  10.8  8.6  ------    0.0   0.0   0.0   0.0   ----- 
Tue 06:00  ENE  6/ 11  10.8  8.7  ------    0.0   0.0   0.0   0.0   ----- 
Tue 06:30  ENE  4/  7  11.1  8.9  ------    0.0   0.0   0.0   0.0   ----- 
Tue 07:00  ENE  7/ 13  12.3  9.6  ------    0.0   0.0   0.0   0.0   ----- 
Tue 07:30   NE  6/ 15  14.1 10.2  ------    0.0   0.0   0.0   0.0   ----- 
Tue 08:00  ENE 11/ 17  15.8 10.6  ------    0.0   0.0   0.0   0.0   ----- 
Tue 08:30  ENE 11/ 22  17.1 10.5  ------    0.0   0.0   0.0   0.0   ----- 
Tue 09:00   NE 15/ 28  17.9 10.5  ------    0.0   0.0   0.0   0.0   ----- 
Tue 09:30   NE 13/ 26  18.4 10.4  ------    0.0   0.0   0.0   0.0   ----- 

DARDANUP

Site: 009GDA
Alt: 24 m
13km E of BUNBURY


  Time     Wind        Temp  DP   Baro     Rain since   Rain past  Vis(m), Cloud(base in m), Weather
  local        km/h                         9am  last   hr   10m    
Tue 04:00  ENE  9/---  14.3 10.6  ------    0.0   0.0   0.0   0.0   ----- 
Tue 04:30  ENE  9/---  14.5 10.8  ------    0.0   0.0   0.0   0.0   ----- 
Tue 05:00  ENE  7/---  14.1 10.6  ------    0.0   0.0   0.0   0.0   ----- 
Tue 05:30  ENE 11/---  14.0 10.7  ------    0.0   0.0   0.0   0.0   ----- 
Tue 06:00  ENE 11/---  13.9 10.5  ------    0.0   0.0   0.0   0.0   ----- 
Tue 06:30   NE  7/---  13.7 10.4  ------    0.0   0.0   0.0   0.0   ----- 
Tue 07:00  ENE 11/---  14.3 10.8  ------    0.0   0.0   0.0   0.0   ----- 
Tue 07:30  ENE 17/---  15.5 11.1  ------    0.0   0.0   0.0   0.0   ----- 
Tue 08:00  ENE 15/---  16.7 11.5  ------    0.0   0.0   0.0   0.0   ----- 
Tue 08:30  ENE 15/---  18.3 12.0  ------    0.0   0.0   0.0   0.0   ----- 
Tue 09:00    E 13/---  20.2 12.2  ------    0.0   0.0   0.0   0.0   ----- 
Tue 09:30  ------/---  21.5 12.4  ------    0.0   0.0   0.0  ----   ----- 

DONNYBROOK AG STATION

Site: 009GDB
Alt: 71 m
33km SE of BUNBURY


  Time     Wind        Temp  DP   Baro     Rain since   Rain past  Vis(m), Cloud(base in m), Weather
  local        km/h                         9am  last   hr   10m    
Tue 04:00  ESE  7/ 19  13.5  9.6  ------    0.0   0.0   0.0   0.0   ----- 
Tue 04:30  ESE  9/ 22  13.3  9.6  ------    0.0   0.0   0.0   0.0   ----- 
Tue 05:00    E  9/ 24  13.0  9.3  ------    0.0   0.0   0.0   0.0   ----- 
Tue 05:30    E  4/ 11  12.5  9.5  ------    0.0   0.0   0.0   0.0   ----- 
Tue 06:00  ESE  6/ 17  12.5  9.5  ------    0.0   0.0   0.0   0.0   ----- 
Tue 06:30  ESE  2/ 11  12.2  9.3  ------    0.0   0.0   0.0   0.0   ----- 
Tue 07:00  ESE  2/  9  12.9  9.4  ------    0.0   0.0   0.0   0.0   ----- 
Tue 07:30   SE  4/ 15  14.2  9.5  ------    0.0   0.0   0.0   0.0   ----- 
Tue 08:00  ESE  4/ 11  15.6  9.5  ------    0.0   0.0   0.0   0.0   ----- 
Tue 08:30   SE  2/  7  17.9  9.4  ------    0.0   0.0   0.0   0.0   ----- 
Tue 09:00  SSE  2/  7  20.6 10.3  ------    0.0   0.0   0.0   0.0   ----- 
Tue 09:30    E  6/ 15  21.9  8.9  ------    0.0   0.0   0.0   0.0   ----- 

DWELLINGUP

Site: 009538
Alt: 267.0m
37km ESE of MANDURAH


  Time     Wind        Temp  DP   Baro     Rain since   Rain past  Vis(m), Cloud(base in m), Weather
  local        km/h                         9am  last   hr   10m    
Tue 04:00  ESE 17/ 26  12.8  6.6  1020.1    0.0   0.0   0.0   0.0   ----- 
Tue 04:30  ESE 17/ 26  12.5  6.5  1020.1    0.0   0.0   0.0   0.0   ----- 
Tue 05:00  ESE 17/ 26  12.1  6.6  1020.2    0.0   0.0   0.0   0.0   ----- 
Tue 05:30  ESE 19/ 26  11.8  6.5  1020.5    0.0   0.0   0.0   0.0   ----- 
Tue 06:00  ESE 17/ 22  11.5  6.4  1020.7    0.0   0.0   0.0   0.0   ----- 
Tue 06:30  ESE 17/ 26  11.0  6.6  1020.9    0.0   0.0   0.0   0.0   ----- 
Tue 07:00    E 17/ 22  11.1  6.8  1021.1    0.0   0.0   0.0   0.0   ----- 
Tue 07:30  ESE 17/ 26  12.2  7.3  1021.3    0.0   0.0   0.0   0.0   ----- 
Tue 08:00    E 17/ 28  14.0  7.5  1021.2    0.0   0.0   0.0   0.0   ----- 
Tue 08:30    E 17/ 30  15.9  7.1  1021.2    0.0   0.0   0.0   0.0   ----- 
Tue 09:00  ENE 15/ 30  18.2  7.6  1020.8    0.0   0.0   0.0   0.0   ----- 
Tue 09:30  ENE 15/ 30  20.3  6.6  1020.7    0.0   0.0   0.0   0.0   ----- 

ESPERANCE

Site: 009789
Alt: 25.0m
3km N of ESPERANCE


  Time     Wind        Temp  DP   Baro     Rain since   Rain past  Vis(m), Cloud(base in m), Weather
  local        km/h                         9am  last   hr   10m    
Tue 04:00   NE 11/ 13  10.8  8.4  1024.9    0.0   0.0   0.0   0.0   10000|SC 750 
Tue 04:30   NE 11/ 13  10.5  8.3  1025.1    0.0   0.0   0.0   0.0   10000 
Tue 05:00    N  9/ 13  10.5  8.4  1025.5    0.0   0.0   0.0   0.0   10000 
Tue 05:30  NNE 11/ 13  10.5  8.4  1025.8    0.0   0.0   0.0   0.0   10000 
Tue 06:00   NE  9/ 11  10.5  8.3  1025.8    0.0   0.0   0.0   0.0   10000|SC 720 
Tue 06:30    N  7/  9  10.3  8.2  1026.1    0.0   0.0   0.0   0.0   10000 
Tue 07:00  NNE  7/  9  11.0  8.6  1026.4    0.0   0.0   0.0   0.0  *10000|SC 750sc 
Tue 07:30  NNE  7/  9  12.5  9.5  1026.4    0.0   0.0   0.0   0.0  *10000|SC 750sc 
Tue 08:00    N  9/ 15  13.9  9.7  1026.5    0.0   0.0   0.0   0.0  *10000|BR 750sc 
Tue 08:30   NE  9/ 15  15.7 10.2  1026.5    0.0   0.0   0.0   0.0  *10000|BR 750sc 
Tue 09:00   NE 19/ 28  16.7  9.6  1026.2    0.0   0.0   0.0   0.0  *10000|BR 750sc 
Tue 09:30   NE 17/ 24  17.9 10.3  1025.8    0.0   0.0   0.0   0.0  *10000|BR 750sc 

ESPERANCE AERO

Site: 009542
Alt: 142.0m
21km NNW of ESPERANCE


  Time     Wind        Temp  DP   Baro     Rain since   Rain past  Vis(m), Cloud(base in m), Weather
  local        km/h                         9am  last   hr   10m    
Tue 04:00  ENE 13/ 19  11.3  8.9  1024.8    0.0   0.0   0.0   0.0   10000 
Tue 04:30  ENE 11/ 19  11.3  8.9  1025.1    0.0   0.0   0.0   0.0   10000 
Tue 05:00  ENE 13/ 17  11.2  8.8  1025.5    0.0   0.0   0.0   0.0   10000 
Tue 05:30  ENE  9/ 17  10.8  8.7  1025.6    0.0   0.0   0.0   0.0   10000 
Tue 06:00  ENE 11/ 15  10.7  8.6  1025.6    0.0   0.0   0.0   0.0   10000 
Tue 06:30  ENE  9/ 15  11.2  9.1  1025.9    0.0   0.0   0.0   0.0   10000 
Tue 07:00   NE  9/ 15  12.5  9.7  1026.2    0.0   0.0   0.0   0.0   10000 
Tue 07:30   NE 13/ 17  13.7 10.3  1026.4    0.0   0.0   0.0   0.0   10000|SC 690 
Tue 08:00  ENE 15/ 22  15.1 10.7  1026.5    0.0   0.0   0.0   0.0   10000|BR 690 
Tue 08:30   NE 20/ 33  16.2 10.1  1026.3    0.0   0.0   0.0   0.0   10000|BR 690 
Tue 09:00   NE 19/ 35  16.6 10.2  1026.2    0.0   0.0   0.0   0.0   10000|BR 690 
Tue 09:30   NE 19/ 28  18.2 11.0  1025.9    0.0   0.0   0.0   0.0   10000|BR 690 

ESPERANCE AG STATION

Site: 009GES
Alt: 158 m
158km NNW of ESPERANCE


  Time     Wind        Temp  DP   Baro     Rain since   Rain past  Vis(m), Cloud(base in m), Weather
  local        km/h                         9am  last   hr   10m    
Tue 04:00   NE  4/  7   9.4  7.8  ------    0.0   0.0   0.0   0.0   ----- 
Tue 04:30   NE  4/  7   9.0  7.5  ------    0.0   0.0   0.0   0.0   ----- 
Tue 05:00   NE  4/  7   9.0  7.9  ------    0.0   0.0   0.0   0.0   ----- 
Tue 05:30  ENE  4/  7   8.8  7.9  ------    0.0   0.0   0.0   0.0   ----- 
Tue 06:00   NE  4/  6   8.6  7.9  ------    0.0   0.0   0.0   0.0   ----- 
Tue 06:30  ENE  4/  7   9.4  8.8  ------    0.0   0.0   0.0   0.0   ----- 
Tue 07:00   NE  4/  7  11.1 10.4  ------    0.0   0.0   0.0   0.0   ----- 
Tue 07:30   NE  7/ 15  12.9 10.9  ------    0.0   0.0   0.0   0.0   ----- 
Tue 08:00  ENE 11/ 22  15.8 11.0  ------    0.0   0.0   0.0   0.0   ----- 
Tue 08:30   NE 15/ 26  16.7 10.2  ------    0.0   0.0   0.0   0.0   ----- 
Tue 09:00   NE 15/ 26  18.0 10.3  ------    0.0   0.0   0.0   0.0   ----- 
Tue 09:30   NE 17/ 26  19.4 10.0  ------    0.0   0.0   0.0   0.0   ----- 

FLOREAT PARK AG STATION

Site: 009GFL
Alt: 158 m
7km W of PERTH CBD


  Time     Wind        Temp  DP   Baro     Rain since   Rain past  Vis(m), Cloud(base in m), Weather
  local        km/h                         9am  last   hr   10m    
Tue 04:00    E  6/ 13  19.0  4.1  ------    0.0   0.0   0.0   0.0   ----- 
Tue 04:30    E  4/ 11  17.8  4.1  ------    0.0   0.0   0.0   0.0   ----- 
Tue 05:00    E  6/ 11  17.5  4.3  ------    0.0   0.0   0.0   0.0   ----- 
Tue 05:30    E  6/ 15  17.1  4.4  ------    0.0   0.0   0.0   0.0   ----- 
Tue 06:00    E  6/ 15  16.9  4.6  ------    0.0   0.0   0.0   0.0   ----- 
Tue 06:30    E  6/ 13  16.9  4.9  ------    0.0   0.0   0.0   0.0   ----- 
Tue 07:00    E  7/ 17  17.3  5.3  ------    0.0   0.0   0.0   0.0   ----- 
Tue 07:30    E  7/ 19  18.2  5.6  ------    0.0   0.0   0.0   0.0   ----- 
Tue 08:00    E  9/ 22  19.5  5.8  ------    0.0   0.0   0.0   0.0   ----- 
Tue 08:30    E  7/ 17  21.0  6.2  ------    0.0   0.0   0.0   0.0   ----- 
Tue 09:00  ENE 13/ 30  22.8  5.7  ------    0.0   0.0   0.0   0.0   ----- 
Tue 09:30   NE 15/ 26  24.2  6.2  ------    0.0   0.0   0.0   0.0   ----- 

FRANKLAND

Site: 009GFR
Alt: 224 m
69km WNW of MOUNT BARKER


  Time     Wind        Temp  DP   Baro     Rain since   Rain past  Vis(m), Cloud(base in m), Weather
  local        km/h                         9am  last   hr   10m    
Tue 04:00  ENE  4/ 13  11.8 10.0  ------    0.0   0.0   0.0   0.0   ----- 
Tue 04:30    E  9/ 20  11.8 10.1  ------    0.0   0.0   0.0   0.0   ----- 
Tue 05:00    E  7/ 15  11.8 10.2  ------    0.0   0.0   0.0   0.0   ----- 
Tue 05:30  ESE  6/ 13  11.4 10.0  ------    0.0   0.0   0.0   0.0   ----- 
Tue 06:00    E  4/  9  10.9  9.7  ------    0.0   0.0   0.0   0.0   ----- 
Tue 06:30  ESE  6/ 15  10.9  9.8  ------    0.0   0.0   0.0   0.0   ----- 
Tue 07:00  ESE  4/  9  11.8 10.6  ------    0.0   0.0   0.0   0.0   ----- 
Tue 07:30  ENE  4/ 11  13.0 10.6  ------    0.0   0.0   0.0   0.0   ----- 
Tue 08:00  ENE 11/ 19  13.7  9.9  ------    0.0   0.0   0.0   0.0   ----- 
Tue 08:30  ENE 11/ 20  14.7  9.8  ------    0.0   0.0   0.0   0.0   ----- 
Tue 09:00   NE  9/ 17  16.6 10.1  ------    0.0   0.0   0.0   0.0   ----- 
Tue 09:30  NNE 11/ 17  17.5 10.2  ------    0.0   0.0   0.0   0.0   ----- 

GARDEN ISLAND HSF

Site: 009256
Alt: 6.0m
32km N of MANDURAH


  Time     Wind        Temp  DP   Baro     Rain since   Rain past  Vis(m), Cloud(base in m), Weather
  local        km/h                         9am  last   hr   10m    
Tue 04:00  ENE 24/ 33  19.4  7.2  1018.1    0.0   0.0   0.0   0.0   ----- 
Tue 05:00  ENE 24/ 33  18.7  7.8  1018.7    0.0   0.0   0.0   0.0   ----- 
Tue 06:00  ENE 19/ 24  18.1  8.1  1019.1    0.0   0.0   0.0   0.0   ----- 
Tue 07:00  ENE 22/ 32  18.9  8.8  1019.3    0.0   0.0   0.0   0.0   ----- 
Tue 08:00  ENE 22/ 32  20.4  8.7  1019.6    0.0   0.0   0.0   0.0   ----- 
Tue 09:00  ENE 19/ 28  22.8  8.9  1019.2    0.0   0.0   0.0   0.0   ----- 

GINGIN AERO

Site: 009178
Alt: 73.0m
54km N of PERTH CBD


  Time     Wind        Temp  DP   Baro     Rain since   Rain past  Vis(m), Cloud(base in m), Weather
  local        km/h                         9am  last   hr   10m    
Tue 04:00    E 17/ 22  18.3  3.8  1017.7    0.0   0.0   0.0   0.0   ----- 
Tue 04:30  ESE 13/ 19  18.0  3.9  1017.9    0.0   0.0   0.0   0.0   ----- 
Tue 05:00    E 13/ 17  17.6  3.9  1018.1    0.0   0.0   0.0   0.0   ----- 
Tue 05:30    E 17/ 20  17.5  4.1  1018.4    0.0   0.0   0.0   0.0   ----- 
Tue 06:00    E 15/ 20  17.5  4.1  1018.5    0.0   0.0   0.0   0.0   ----- 
Tue 06:30    E 17/ 26  17.3  4.3  1018.5    0.0   0.0   0.0   0.0   ----- 
Tue 07:00  ENE 22/ 35  19.1  4.5  1018.6    0.0   0.0   0.0   0.0   ----- 
Tue 07:30  ENE 28/ 39  20.1  4.6  1018.5    0.0   0.0   0.0   0.0   ----- 
Tue 08:00  ENE 30/ 39  21.3  4.8  1018.6    0.0   0.0   0.0   0.0   ----- 
Tue 08:30   NE 28/ 39  22.5  5.0  1018.7    0.0   0.0   0.0   0.0   ----- 
Tue 09:00   NE 28/ 39  23.5  4.9  1018.6    0.0   0.0   0.0   0.0   ----- 
Tue 09:30   NE 32/ 43  24.9  5.2  1018.3    0.0   0.0   0.0   0.0   ----- 

GINGIN WEST AG STATION

Site: 009GNW
Alt: m
km of


  Time     Wind        Temp  DP   Baro     Rain since   Rain past  Vis(m), Cloud(base in m), Weather
  local        km/h                         9am  last   hr   10m    
Tue 04:00    E  9/ 15  16.3  4.5  ------    0.0   0.0   0.0   0.0   ----- 
Tue 04:30  ENE 11/ 20  17.5  4.5  ------    0.0   0.0   0.0   0.0   ----- 
Tue 05:00  ENE 15/ 26  18.7  4.3  ------    0.0   0.0   0.0   0.0   ----- 
Tue 05:30  ENE 17/ 28  18.7  4.3  ------    0.0   0.0   0.0   0.0   ----- 
Tue 06:00  ENE 20/ 32  18.7  4.3  ------    0.0   0.0   0.0   0.0   ----- 
Tue 06:30  ENE 19/ 33  18.0  4.5  ------    0.0   0.0   0.0   0.0   ----- 
Tue 07:00  ENE 17/ 26  18.7  4.8  ------    0.0   0.0   0.0   0.0   ----- 
Tue 07:30  ENE 15/ 22  19.6  5.5  ------    0.0   0.0   0.0   0.0   ----- 
Tue 08:00  ENE 15/ 30  21.8  5.0  ------    0.0   0.0   0.0   0.0   ----- 
Tue 08:30  ENE 17/ 28  23.3  5.3  ------    0.0   0.0   0.0   0.0   ----- 
Tue 09:00   NE 22/ 35  24.4  5.2  ------    0.0   0.0   0.0   0.0   ----- 
Tue 09:30  ENE 19/ 28  26.1  5.3  ------    0.0   0.0   0.0   0.0   ----- 

GOOSEBERRY HILL

Site: 009204
Alt: 220.0m
18km E of PERTH CBD


  Time     Wind        Temp  DP   Baro     Rain since   Rain past  Vis(m), Cloud(base in m), Weather
  local        km/h                         9am  last   hr   10m    
Tue 04:00    E 30/ 50  15.5  3.9  ------   ----  ----  ----  ----   ----- 
Tue 04:30    E 32/ 50  14.9  4.9  ------   ----  ----  ----  ----   ----- 
Tue 05:00    E 32/ 54  14.7  5.2  ------   ----  ----  ----  ----   ----- 
Tue 05:30    E 32/ 46  14.4  5.5  ------   ----  ----  ----  ----   ----- 
Tue 06:00    E 37/ 48  14.0  5.6  ------   ----  ----  ----  ----   ----- 
Tue 06:30    E 35/ 48  14.0  5.9  ------   ----  ----  ----  ----   ----- 
Tue 07:00    E 35/ 52  14.7  6.0  ------   ----  ----  ----  ----   ----- 
Tue 07:14    E 37/ 58  14.9  6.0  ------   ----  ----  ----  ----   ----- 
Tue 07:30    E 39/ 56  15.4  5.9  ------   ----  ----  ----  ----   ----- 
Tue 07:43    E 37/ 56  15.5  6.0  ------   ----  ----  ----  ----   ----- 
Tue 08:00    E 39/ 58  16.4  6.0  ------   ----  ----  ----  ----   ----- 
Tue 08:30    E 32/ 46  18.2  6.7  ------   ----  ----  ----  ----   ----- 
Tue 09:00    E 26/ 37  21.0  6.5  ------   ----  ----  ----  ----   ----- 
Tue 09:30  ENE 24/ 43  23.0  5.9  ------   ----  ----  ----  ----   ----- 

HARVEY

Site: 009GHV
Alt: 38 m
35km NE of BUNBURY


  Time     Wind        Temp  DP   Baro     Rain since   Rain past  Vis(m), Cloud(base in m), Weather
  local        km/h                         9am  last   hr   10m    
Tue 04:00    E 15/---  14.9  7.5  ------    0.0   0.0   0.0   0.0   ----- 
Tue 04:30    E 13/---  14.9  7.4  ------    0.0   0.0   0.0   0.0   ----- 
Tue 05:00    E 11/---  14.4  7.3  ------    0.0   0.0   0.0   0.0   ----- 
Tue 05:30    E  9/---  14.5  7.4  ------    0.0   0.0   0.0   0.0   ----- 
Tue 06:00  ESE  7/---  14.2  7.3  ------    0.0   0.0   0.0   0.0   ----- 
Tue 06:30    E  9/---  14.0  7.1  ------    0.0   0.0   0.0   0.0   ----- 
Tue 07:00    E  7/---  14.4  7.5  ------    0.0   0.0   0.0   0.0   ----- 
Tue 07:30    E  6/---  16.2  7.6  ------    0.0   0.0   0.0   0.0   ----- 
Tue 08:00  ENE  9/---  19.0  7.4  ------    0.0   0.0   0.0   0.0   ----- 
Tue 08:30   NE 13/---  20.2  6.9  ------    0.0   0.0   0.0   0.0   ----- 
Tue 09:00  ENE 13/---  22.0  7.1  ------    0.0   0.0   0.0   0.0   ----- 
Tue 09:30   NE 11/---  23.1  6.7  ------    0.0   0.0   0.0   0.0   ----- 

HILLARYS BOAT HARBOUR NTC AWS

Site: 009265
Alt: 0.0m
18km NW of PERTH CBD


  Time     Wind        Temp  DP   Baro     Rain since   Rain past  Vis(m), Cloud(base in m), Weather
  local        km/h                         9am  last   hr   10m    
Tue 04:00  ENE 17/ 35  20.4----  1016.9   ----  ----  ----  ----   ----- 
Tue 04:30  ENE 11/ 20  20.1----  1017.2   ----  ----  ----  ----   ----- 
Tue 05:00  ENE  9/ 13  19.7----  1017.5   ----  ----  ----  ----   ----- 
Tue 05:30    E  7/ 17  19.3----  1017.9   ----  ----  ----  ----   ----- 
Tue 06:00  ENE  7/ 15  19.0----  1017.7   ----  ----  ----  ----   ----- 
Tue 06:30  ENE  7/ 15  18.9----  1017.9   ----  ----  ----  ----   ----- 
Tue 07:00  ENE  7/ 17  19.2----  1018.3   ----  ----  ----  ----   ----- 
Tue 07:30    E 11/ 20  19.6----  1018.2   ----  ----  ----  ----   ----- 
Tue 08:00  ENE 15/ 26  20.5----  1018.3   ----  ----  ----  ----   ----- 
Tue 08:30  ENE 20/ 37  21.9----  1018.2   ----  ----  ----  ----   ----- 
Tue 09:00  ENE 30/ 46  22.5----  1017.7   ----  ----  ----  ----   ----- 
Tue 09:03  ENE 28/ 46  22.6----  1017.7   ----  ----  ----  ----   ----- 
Tue 09:30  ENE 26/ 41  23.5----  1017.3   ----  ----  ----  ----   ----- 

HOPETOUN NORTH

Site: 009961
Alt: 26.0m
39km S of RAVENSTHORPE


  Time     Wind        Temp  DP   Baro     Rain since   Rain past  Vis(m), Cloud(base in m), Weather
  local        km/h                         9am  last   hr   10m    
Tue 04:00   NE  7/  9  10.4  9.0  1024.1    0.0   0.0   0.0   0.0   ----- 
Tue 04:30   NE  6/  7  10.0  8.8  1024.2    0.0   0.0   0.0   0.0   ----- 
Tue 05:00  NNE  7/  7   9.8  8.7  1024.5    0.0   0.0   0.0   0.0   ----- 
Tue 05:30   NE  9/  9   9.7  8.8  1024.4    0.0   0.0   0.0   0.0   ----- 
Tue 06:00   NE  9/  9   9.5  8.6  1024.5    0.0   0.0   0.0   0.0   ----- 
Tue 06:30   NE  9/  9   9.5  8.7  1024.7    0.0   0.0   0.0   0.0   ----- 
Tue 07:00   NE 11/ 13  10.7  9.3  1024.8    0.0   0.0   0.0   0.0   ----- 
Tue 07:30   NE 11/ 20  12.8 10.0  1025.0    0.0   0.0   0.0   0.0   ----- 
Tue 08:00   NE 17/ 24  14.8 10.4  1024.8    0.0   0.0   0.0   0.0   ----- 
Tue 08:30   NE 22/ 30  16.1 10.2  1024.5    0.0   0.0   0.0   0.0   ----- 
Tue 09:00  NNE 22/ 32  17.6 10.5  1024.3    0.0   0.0   0.0   0.0   ----- 
Tue 09:30  NNE 17/ 24  18.4 10.0  1024.2    0.0   0.0   0.0   0.0   ----- 

INNER DOLPHIN PYLON

Site: 009091
Alt: 0.0m
5km SSW of PERTH CBD


  Time     Wind        Temp  DP   Baro     Rain since   Rain past  Vis(m), Cloud(base in m), Weather
  local        km/h                         9am  last   hr   10m    
Tue 04:00    E 26/ 33 --------  ------   ----  ----  ----  ----   ----- 
Tue 04:30    E 24/ 33 --------  ------   ----  ----  ----  ----   ----- 
Tue 05:00    E 28/ 37 --------  ------   ----  ----  ----  ----   ----- 
Tue 05:30    E 28/ 39 --------  ------   ----  ----  ----  ----   ----- 
Tue 06:00    E 32/ 39 --------  ------   ----  ----  ----  ----   ----- 
Tue 06:30    E 28/ 35 --------  ------   ----  ----  ----  ----   ----- 
Tue 07:00    E 22/ 28 --------  ------   ----  ----  ----  ----   ----- 
Tue 07:30    E 28/ 37 --------  ------   ----  ----  ----  ----   ----- 
Tue 08:00    E 24/ 32 --------  ------   ----  ----  ----  ----   ----- 
Tue 08:30    E 17/ 24 --------  ------   ----  ----  ----  ----   ----- 
Tue 09:00    E 19/ 26 --------  ------   ----  ----  ----  ----   ----- 
Tue 09:30  ENE 24/ 35 --------  ------   ----  ----  ----  ----   ----- 

JANDAKOT AERO

Site: 009172
Alt: 30.0m
17km S of PERTH CBD


  Time     Wind        Temp  DP   Baro     Rain since   Rain past  Vis(m), Cloud(base in m), Weather
  local        km/h                         9am  last   hr   10m    
Tue 04:00  ENE 20/ 32  18.4  5.3  1018.1    0.0   0.0   0.0   0.0   10000 
Tue 04:30  ENE 20/ 26  18.0  5.6  1018.0    0.0   0.0   0.0   0.0   10000 
Tue 05:00  ENE 20/ 30  17.9  5.8  1018.4    0.0   0.0   0.0   0.0   10000 
Tue 05:30  ENE 24/ 33  17.9  6.1  1018.8    0.0   0.0   0.0   0.0   10000 
Tue 06:00  ENE 24/ 35  17.6  6.5  1018.9    0.0   0.0   0.0   0.0   10000 
Tue 06:30  ENE 22/ 35  17.4  6.6  1019.1    0.0   0.0   0.0   0.0   10000 
Tue 07:00  ENE 24/ 33  18.1  6.6  1019.2    0.0   0.0   0.0   0.0   10000 
Tue 07:30  ENE 26/ 35  18.8  6.6  1019.3    0.0   0.0   0.0   0.0   10000 
Tue 08:00  ENE 24/ 32  19.7  6.8  1019.3    0.0   0.0   0.0   0.0   10000 
Tue 08:30  ENE 22/ 28  21.1  7.0  1019.5    0.0   0.0   0.0   0.0   10000 
Tue 09:00  ENE 26/ 37  22.7  6.9  1019.0    0.0   0.0   0.0   0.0   10000 
Tue 09:30  ENE 28/ 37  23.6  6.8  1018.6    0.0   0.0   0.0   0.0   10000 

JURIEN BAY AG STATION

Site: 009URB
Alt: 80m
17km E of JURIEN BAY


  Time     Wind        Temp  DP   Baro     Rain since   Rain past  Vis(m), Cloud(base in m), Weather
  local        km/h                         9am  last   hr   10m    
Tue 04:00  ENE 19/ 30  19.0  4.3  ------    0.0   0.0   0.0   0.0   ----- 
Tue 04:30  ENE 19/ 30  18.9  4.3  ------    0.0   0.0   0.0   0.0   ----- 
Tue 05:00  ENE 20/ 28  18.2  4.3  ------    0.0   0.0   0.0   0.0   ----- 
Tue 05:30  ENE 22/ 32  18.2  4.3  ------    0.0   0.0   0.0   0.0   ----- 
Tue 06:00  ENE 22/ 33  18.3  4.3  ------    0.0   0.0   0.0   0.0   ----- 
Tue 06:30  ENE 20/ 30  18.0  4.4  ------    0.0   0.0   0.0   0.0   ----- 
Tue 07:00  ENE 19/ 26  18.3  4.5  ------    0.0   0.0   0.0   0.0   ----- 
Tue 07:30  ENE 19/ 32  19.6  4.8  ------    0.0   0.0   0.0   0.0   ----- 
Tue 08:00  ENE 20/ 30  21.6  5.0  ------    0.0   0.0   0.0   0.0   ----- 
Tue 08:00  ENE 20/ 30  21.6  5.0  ------    0.0   0.0  ----   0.0   ----- 
Tue 08:30  ENE 22/ 33  23.8  4.9  ------    0.0   0.0   0.0   0.0   ----- 
Tue 09:00  ENE 22/ 33  25.6  5.1  ------    0.0   0.0   0.0   0.0   ----- 
Tue 09:00  ENE 22/ 33  25.6  5.1  ------    0.0   0.0  ----   0.0   ----- 
Tue 09:30  ENE 24/ 35  27.5  5.1  ------    0.0   0.0   0.0   0.0   ----- 

LANCELIN (DEFENCE)

Site: 009280
Alt: 7.0m
km of


  Time     Wind        Temp  DP   Baro     Rain since   Rain past  Vis(m), Cloud(base in m), Weather
  local        km/h                         9am  last   hr   10m    
Tue 04:00    E 11/ 19  17.7  4.3  1016.4    0.0   0.0   0.0   0.0   ----- 
Tue 04:30  ENE 19/ 28  18.2  4.4  1016.3    0.0   0.0   0.0   0.0   ----- 
Tue 05:00  ENE 19/ 32  18.4  4.2  1016.4    0.0   0.0   0.0   0.0   ----- 
Tue 05:30  ENE 19/ 26  18.3  4.1  1016.7    0.0   0.0   0.0   0.0   ----- 
Tue 06:00  ENE 19/ 28  17.6  4.2  1016.9    0.0   0.0   0.0   0.0   ----- 
Tue 06:30  ENE 19/ 28  17.0  4.3  1016.9    0.0   0.0   0.0   0.0   ----- 
Tue 07:00  ENE 17/ 26  17.2  4.5  1017.0    0.0   0.0   0.0   0.0   ----- 
Tue 07:30    E 19/ 28  18.6  4.8  1017.1    0.0   0.0   0.0   0.0   ----- 
Tue 08:00  ENE 26/ 37  20.9  4.9  1017.1    0.0   0.0   0.0   0.0   ----- 
Tue 08:30  ENE 24/ 41  22.6  5.1  1016.8    0.0   0.0   0.0   0.0   ----- 
Tue 09:00  ENE 26/ 39  24.5  5.3  1016.6    0.0   0.0   0.0   0.0   ----- 
Tue 09:30   NE 24/ 41  26.8  5.1  1016.6    0.0   0.0   0.0   0.0   ----- 

LANCELIN EAST AG STATION

Site: 009GLE
Alt: m
km of


  Time     Wind        Temp  DP   Baro     Rain since   Rain past  Vis(m), Cloud(base in m), Weather
  local        km/h                         9am  last   hr   10m    
Tue 04:00    E 17/ 26  18.0  4.1  ------    0.0   0.0   0.0   0.0   ----- 
Tue 04:30    E 15/ 26  17.8  4.3  ------    0.0   0.0   0.0   0.0   ----- 
Tue 05:00    E 17/ 26  17.7  4.2  ------    0.0   0.0   0.0   0.0   ----- 
Tue 05:30    E 15/ 20  17.0  4.3  ------    0.0   0.0   0.0   0.0   ----- 
Tue 06:00    E 15/ 24  16.4  4.3  ------    0.0   0.0   0.0   0.0   ----- 
Tue 06:30    E 15/ 22  16.1  4.5  ------    0.0   0.0   0.0   0.0   ----- 
Tue 07:00    E 17/ 24  17.1  4.7  ------    0.0   0.0   0.0   0.0   ----- 
Tue 07:30    E 19/ 32  18.9  4.8  ------    0.0   0.0   0.0   0.0   ----- 
Tue 08:00    E 20/ 33  20.5  4.9  ------    0.0   0.0   0.0   0.0   ----- 
Tue 08:30  ENE 22/ 37  22.1  5.1  ------    0.0   0.0   0.0   0.0   ----- 
Tue 09:00  ENE 24/ 37  23.8  5.1  ------    0.0   0.0   0.0   0.0   ----- 
Tue 09:30  ENE 22/ 37  25.2  5.2  ------    0.0   0.0   0.0   0.0   ----- 

MANDURAH

Site: 009977
Alt: 3.0m
1km NW of MANDURAH


  Time     Wind        Temp  DP   Baro     Rain since   Rain past  Vis(m), Cloud(base in m), Weather
  local        km/h                         9am  last   hr   10m    
Tue 04:00    E  6/  9  17.3  6.5  1018.2    0.0   0.0   0.0   0.0   ----- 
Tue 04:30  ESE  6/  7  16.7  7.1  1018.5    0.0   0.0   0.0   0.0   ----- 
Tue 05:00  ESE  4/  4  16.3  7.3  1018.7    0.0   0.0   0.0   0.0   ----- 
Tue 05:30  ESE  4/  6  16.0  7.7  1019.0    0.0   0.0   0.0   0.0   ----- 
Tue 06:00  ESE  6/  6  16.1  7.6  1019.3    0.0   0.0   0.0   0.0   ----- 
Tue 06:30  ESE  6/  9  15.8  7.6  1019.4    0.0   0.0   0.0   0.0   ----- 
Tue 07:00    E  7/ 13  16.3  7.3  1019.5    0.0   0.0   0.0   0.0   ----- 
Tue 07:30    E  6/  9  17.3  7.4  1019.5    0.0   0.0   0.0   0.0   ----- 
Tue 08:00  ENE  9/ 15  18.8  7.6  1019.5    0.0   0.0   0.0   0.0   ----- 
Tue 08:30  ENE 19/ 35  20.9  8.2  1019.5    0.0   0.0   0.0   0.0   ----- 
Tue 09:00  ENE 20/ 30  22.0  8.2  1019.2    0.0   0.0   0.0   0.0   ----- 
Tue 09:30   NE 24/ 33  23.1  8.0  1018.8    0.0   0.0   0.0   0.0   ----- 

MANJIMUP

Site: 009573
Alt: 286.7m
1km S of MANJIMUP


  Time     Wind        Temp  DP   Baro     Rain since   Rain past  Vis(m), Cloud(base in m), Weather
  local        km/h                         9am  last   hr   10m    
Tue 04:00  ENE  9/ 13   9.5  8.3  1021.7    0.0   0.0   0.0   0.0   ----- 
Tue 05:00  ENE  9/ 15   9.2  8.3  1021.8    0.0   0.0   0.0   0.0   ----- 
Tue 06:00  ENE  9/ 13   8.9  8.3  1021.7    0.0   0.0   0.0   0.0   ----- 
Tue 07:00   NE  7/  9   9.3  8.8  1021.9    0.0   0.0   0.0   0.0   ----- 
Tue 08:00   NE  7/ 19  12.3 10.2  1022.2    0.0   0.0   0.0   0.0   ----- 
Tue 09:00  NNE 13/ 24  15.2  9.3  1022.2    0.0   0.0   0.0   0.0   ----- 

MANJIMUP AG STATION

Site: 009GMA
Alt: m
km of


  Time     Wind        Temp  DP   Baro     Rain since   Rain past  Vis(m), Cloud(base in m), Weather
  local        km/h                         9am  last   hr   10m    
Tue 04:00   NE  4/ 13  11.3  9.3  ------    0.0   0.0   0.0   0.0   ----- 
Tue 04:30   NE  6/ 13  11.3  9.5  ------    0.0   0.0   0.0   0.0   ----- 
Tue 05:00  ENE  4/ 11  11.1  9.4  ------    0.0   0.0   0.0   0.0   ----- 
Tue 05:30   NE  4/ 13  10.9  9.3  ------    0.0   0.0   0.0   0.0   ----- 
Tue 06:00   NE  4/  9  10.7  9.2  ------    0.0   0.0   0.0   0.0   ----- 
Tue 06:30   NE  2/  7  10.7  9.3  ------    0.0   0.0   0.0   0.0   ----- 
Tue 07:00   NE  4/  9  11.2  9.6  ------    0.0   0.0   0.0   0.0   ----- 
Tue 07:30   NE  6/ 13  11.9  9.6  ------    0.0   0.0   0.0   0.0   ----- 
Tue 08:00   NE  6/ 15  13.3  9.8  ------    0.0   0.0   0.0   0.0   ----- 
Tue 08:30   NE  7/ 20  15.0  9.6  ------    0.0   0.0   0.0   0.0   ----- 
Tue 09:00   NE 11/ 24  16.6  9.6  ------    0.0   0.0   0.0   0.0   ----- 
Tue 09:30  NNE 11/ 22  18.4  9.1  ------    0.0   0.0   0.0   0.0   ----- 

MANYPEAKS AG STATION

Site: 009GMP
Alt: 124.0m
33km NE of ALBANY


  Time     Wind        Temp  DP   Baro     Rain since   Rain past  Vis(m), Cloud(base in m), Weather
  local        km/h                         9am  last   hr   10m    
Tue 04:00   NE  7/ 13  13.5 11.1  ------    0.0   0.0   0.0   0.0   ----- 
Tue 04:30   NE  6/  9  13.2 10.9  ------    0.0   0.0   0.0   0.0   ----- 
Tue 05:00   NE  6/  7  12.6 10.8  ------    0.0   0.0   0.0   0.0   ----- 
Tue 05:30  NNE  4/  9  12.3 11.0  ------    0.0   0.0   0.0   0.0   ----- 
Tue 06:00  NNE  6/ 11  12.3 10.9  ------    0.0   0.0   0.0   0.0   ----- 
Tue 06:30   NE  6/  9  12.3 11.1  ------    0.0   0.0   0.0   0.0   ----- 
Tue 07:00  ENE  4/  7  12.9 11.2  ------    0.0   0.0   0.0   0.0   ----- 
Tue 07:30  ENE  7/ 13  14.3 11.6  ------    0.0   0.0   0.0   0.0   ----- 
Tue 08:00   NE 17/ 30  15.7 10.4  ------    0.0   0.0   0.0   0.0   ----- 
Tue 08:30   NE 19/ 32  16.9 10.8  ------    0.0   0.0   0.0   0.0   ----- 
Tue 09:00   NE 17/ 26  17.7 10.7  ------    0.0   0.0   0.0   0.0   ----- 
Tue 09:30   NE 13/ 24  19.0 11.3  ------    0.0   0.0   0.0   0.0   ----- 

MERREDIN AG STATION

Site: 009GME
Alt: m
km of


  Time     Wind        Temp  DP   Baro     Rain since   Rain past  Vis(m), Cloud(base in m), Weather
  local        km/h                         9am  last   hr   10m    
Tue 04:00    E 11/ 19  15.6  5.2  ------    0.0   0.0   0.0   0.0   ----- 
Tue 04:30    E  7/ 17  14.9  5.2  ------    0.0   0.0   0.0   0.0   ----- 
Tue 05:00    E 13/ 22  15.3  5.3  ------    0.0   0.0   0.0   0.0   ----- 
Tue 05:30  ENE 13/ 22  15.1  5.5  ------    0.0   0.0   0.0   0.0   ----- 
Tue 06:00  ENE 17/ 26  15.0  5.6  ------    0.0   0.0   0.0   0.0   ----- 
Tue 06:30  ENE 15/ 24  15.3  5.9  ------    0.0   0.0   0.0   0.0   ----- 
Tue 07:00  ENE 15/ 26  16.0  6.1  ------    0.0   0.0   0.0   0.0   ----- 
Tue 07:30  ENE 20/ 32  16.9  6.3  ------    0.0   0.0   0.0   0.0   ----- 
Tue 08:00  ENE 22/ 37  17.6  6.3  ------    0.0   0.0   0.0   0.0   ----- 
Tue 08:30   NE 22/ 35  18.9  6.3  ------    0.0   0.0   0.0   0.0   ----- 
Tue 09:00   NE 22/ 35  20.3  6.2  ------    0.0   0.0   0.0   0.0   ----- 
Tue 09:30   NE 24/ 35  21.3  5.9  ------    0.0   0.0   0.0   0.0   ----- 

MILLENDON (SWAN VALLEY)

Site: 009281
Alt: 16.0m
km of


  Time     Wind        Temp  DP   Baro     Rain since   Rain past  Vis(m), Cloud(base in m), Weather
  local        km/h                         9am  last   hr   10m    
Tue 04:00  ENE  7/ 13  19.7  4.2  ------    0.0   0.0   0.0   0.0   ----- 
Tue 04:30    E  7/ 17  19.3  3.9  ------    0.0   0.0   0.0   0.0   ----- 
Tue 05:00  ENE  4/  7  19.2  4.2  ------    0.0   0.0   0.0   0.0   ----- 
Tue 05:30    E  4/  9  19.0  4.4  ------    0.0   0.0   0.0   0.0   ----- 
Tue 06:00    E  6/ 13  18.0  4.9  ------    0.0   0.0   0.0   0.0   ----- 
Tue 06:30    C  0/  2  17.1  5.4  ------    0.0   0.0   0.0   0.0   ----- 
Tue 07:00  ENE  9/ 19  18.6  5.5  ------    0.0   0.0   0.0   0.0   ----- 
Tue 07:30  ENE  7/ 13  19.6  5.6  ------    0.0   0.0   0.0   0.0   ----- 
Tue 08:00  NNE  9/ 26  20.6  5.4  ------    0.0   0.0   0.0   0.0   ----- 
Tue 08:30   NE  4/ 11  21.8  6.1  ------    0.0   0.0   0.0   0.0   ----- 
Tue 09:00    C  0/  0  23.8  6.1  ------    0.0   0.0   0.0   0.0   ----- 
Tue 09:30   NE  9/ 20  24.4  6.2  ------    0.0   0.0   0.0   0.0   ----- 

MOUNT BARKER AG STATION

Site: 009GMB
Alt: m
km of


  Time     Wind        Temp  DP   Baro     Rain since   Rain past  Vis(m), Cloud(base in m), Weather
  local        km/h                         9am  last   hr   10m    
Tue 04:00  ENE  7/ 11  11.6  9.7  ------    0.0   0.0   0.0   0.0   ----- 
Tue 04:30  ENE  6/ 11  11.2  9.5  ------    0.0   0.0   0.0   0.0   ----- 
Tue 05:00  ENE  6/ 13  11.4  9.8  ------    0.0   0.0   0.0   0.0   ----- 
Tue 05:30  ENE  7/ 15  11.7 10.1  ------    0.0   0.0   0.0   0.0   ----- 
Tue 06:00  ENE  7/ 15  11.5 10.1  ------    0.0   0.0   0.0   0.0   ----- 
Tue 06:30  ENE  7/ 11  11.6 10.2  ------    0.0   0.0   0.0   0.0   ----- 
Tue 07:00  ENE  7/ 13  12.2 10.4  ------    0.0   0.0   0.0   0.0   ----- 
Tue 07:30  ENE  7/ 17  13.8 10.7  ------    0.0   0.0   0.0   0.0   ----- 
Tue 08:00  ENE  9/ 15  14.8 10.5  ------    0.0   0.0   0.0   0.0   ----- 
Tue 08:30   NE  9/ 15  15.9 10.4  ------    0.0   0.0   0.0   0.0   ----- 
Tue 09:00   NE 13/ 20  16.6 10.2  ------    0.0   0.0   0.0   0.0   ----- 
Tue 09:30  NNE 13/ 20  18.0  9.8  ------    0.0   0.0   0.0   0.0   ----- 

MOUNT HOWICK AG STATION

Site: 009GHO
Alt: 120 m
78km ENE of ESPERANCE


  Time     Wind        Temp  DP   Baro     Rain since   Rain past  Vis(m), Cloud(base in m), Weather
  local        km/h                         9am  last   hr   10m    
Tue 04:00  NNE  6/  7   8.2  7.1  ------    0.0   0.0   0.0   0.0   ----- 
Tue 04:30  NNE  6/  7   8.7  7.4  ------    0.0   0.0   0.0   0.0   ----- 
Tue 05:00   NE  4/  7   9.6  8.0  ------    0.0   0.0   0.0   0.0   ----- 
Tue 05:30   NE  4/  6  10.3  8.4  ------    0.0   0.0   0.0   0.0   ----- 
Tue 06:00  ENE  4/  6  11.4  9.2  ------    0.0   0.0   0.0   0.0   ----- 
Tue 06:30   NE  4/  6  12.7  9.9  ------    0.0   0.0   0.0   0.0   ----- 
Tue 07:00   NE  4/  6  14.0 10.4  ------    0.0   0.0   0.0   0.0   ----- 
Tue 07:30   NE  6/  9  15.1 10.9  ------    0.0   0.0   0.0   0.0   ----- 
Tue 08:00   NE 11/ 19  16.2 10.6  ------    0.0   0.0   0.0   0.0   ----- 
Tue 08:30  ENE 15/ 22  16.9 10.6  ------    0.0   0.0   0.0   0.0   ----- 
Tue 09:00   NE 15/ 20  17.5 10.9  ------    0.0   0.0   0.0   0.0   ----- 
Tue 09:30  ENE 17/ 26  17.9 11.0  ------    0.0   0.0   0.0   0.0   ----- 

MYALUP AG STATION

Site: 009GMY
Alt: m
km of


  Time     Wind        Temp  DP   Baro     Rain since   Rain past  Vis(m), Cloud(base in m), Weather
  local        km/h                         9am  last   hr   10m    
Tue 04:00    E  7/ 17  15.3  8.6  ------    0.0   0.0   0.0   0.0   ----- 
Tue 04:30    E  9/ 17  15.2  8.7  ------    0.0   0.0   0.0   0.0   ----- 
Tue 05:00    E  9/ 17  14.9  8.6  ------    0.0   0.0   0.0   0.0   ----- 
Tue 05:30    E  9/ 17  14.6  8.7  ------    0.0   0.0   0.0   0.0   ----- 
Tue 06:00    E  7/ 15  14.2  8.6  ------    0.0   0.0   0.0   0.0   ----- 
Tue 06:30    E  6/ 11  13.8  8.6  ------    0.0   0.0   0.0   0.0   ----- 
Tue 07:00    E  6/ 13  14.5  9.0  ------    0.0   0.0   0.0   0.0   ----- 
Tue 07:30    E  6/ 11  15.6  9.2  ------    0.0   0.0   0.0   0.0   ----- 
Tue 08:00    E  4/  7  17.8  9.6  ------    0.0   0.0   0.0   0.0   ----- 
Tue 08:00    E  4/  7  17.8  9.6  ------    0.0   0.0  ----   0.0   ----- 
Tue 08:30   NE  7/ 17  20.6  8.9  ------    0.0   0.0   0.0   0.0   ----- 
Tue 09:00  ENE  6/ 17  21.5  8.2  ------    0.0   0.0   0.0   0.0   ----- 
Tue 09:00  ENE  6/ 17  21.5  8.2  ------    0.0   0.0  ----   0.0   ----- 
Tue 09:30   NE 11/ 24  23.0  7.9  ------    0.0   0.0   0.0   0.0   ----- 

NEW NORCIA AG STATION

Site: 009NCA
Alt: 260m
12km S of NEW NORCIA


  Time     Wind        Temp  DP   Baro     Rain since   Rain past  Vis(m), Cloud(base in m), Weather
  local        km/h                         9am  last   hr   10m    
Tue 04:00    E 13/ 22  15.7  3.8  ------    0.0   0.0   0.0   0.0   ----- 
Tue 04:30    E 11/ 20  15.2  3.7  ------    0.0   0.0   0.0   0.0   ----- 
Tue 05:00    E 13/ 24  15.3  3.9  ------    0.0   0.0   0.0   0.0   ----- 
Tue 05:30    E 15/ 26  15.1  3.9  ------    0.0   0.0   0.0   0.0   ----- 
Tue 06:00    E 15/ 24  14.8  4.0  ------    0.0   0.0   0.0   0.0   ----- 
Tue 06:30    E 15/ 26  15.0  4.2  ------    0.0   0.0   0.0   0.0   ----- 
Tue 07:00    E 17/ 30  15.8  4.3  ------    0.0   0.0   0.0   0.0   ----- 
Tue 07:30    E 15/ 26  16.6  4.5  ------    0.0   0.0   0.0   0.0   ----- 
Tue 08:00    E 19/ 32  18.3  4.8  ------    0.0   0.0   0.0   0.0   ----- 
Tue 08:30  ENE 20/ 30  20.0  5.1  ------    0.0   0.0   0.0   0.0   ----- 
Tue 09:00   NE 22/ 35  22.0  5.1  ------    0.0   0.0   0.0   0.0   ----- 
Tue 09:30   NE 22/ 39  23.3  4.8  ------    0.0   0.0   0.0   0.0   ----- 

NORTH WALPOLE

Site: 009998
Alt: 73.0m
95km SE of MANJIMUP


  Time     Wind        Temp  DP   Baro     Rain since   Rain past  Vis(m), Cloud(base in m), Weather
  local        km/h                         9am  last   hr   10m    
Tue 04:00   NE 11/ 17  11.3 11.1  1022.0    0.0   0.0   0.0   0.0   ----- 
Tue 04:30   NE 13/ 20  11.7 10.9  1022.0    0.0   0.0   0.0   0.0   ----- 
Tue 05:00   NE 15/ 24  11.4 10.9  1021.9    0.0   0.0   0.0   0.0   ----- 
Tue 05:30   NE 13/ 19  11.5 11.2  1022.0    0.0   0.0   0.0   0.0   ----- 
Tue 06:00   NE 13/ 19  11.4 11.2  1022.0    0.0   0.0   0.0   0.0   ----- 
Tue 06:30  ENE 13/ 20  11.0 10.8  1021.7    0.0   0.0   0.0   0.0   ----- 
Tue 07:00   NE 13/ 17  11.6 11.3  1022.0    0.0   0.0   0.0   0.0   ----- 
Tue 07:30   NE 15/ 24  12.5 11.1  1022.0    0.0   0.0   0.0   0.0   ----- 
Tue 08:00   NE 15/ 24  14.0 11.3  1021.9    0.0   0.0   0.0   0.0   ----- 
Tue 08:30   NE 20/ 32  15.2 11.6  1022.0    0.0   0.0   0.0   0.0   ----- 
Tue 09:00   NE 17/ 28  17.1 11.8  1021.7    0.0   0.0   0.0   0.0   ----- 
Tue 09:30  NNE 15/ 24  18.4 11.7  1021.7    0.0   0.0   0.0   0.0   ----- 

OCEAN REEF

Site: 009214
Alt: 10.0m
25km NNW of PERTH CBD


  Time     Wind        Temp  DP   Baro     Rain since   Rain past  Vis(m), Cloud(base in m), Weather
  local        km/h                         9am  last   hr   10m    
Tue 04:00    E 15/ 24 --------  ------   ----  ----  ----  ----   ----- 
Tue 04:30    E 11/ 17 --------  ------   ----  ----  ----  ----   ----- 
Tue 05:00    E  9/ 17 --------  ------   ----  ----  ----  ----   ----- 
Tue 05:30    E 15/ 26 --------  ------   ----  ----  ----  ----   ----- 
Tue 06:00    E 17/ 30 --------  ------   ----  ----  ----  ----   ----- 
Tue 06:30    E 15/ 26 --------  ------   ----  ----  ----  ----   ----- 
Tue 07:00    E 15/ 28 --------  ------   ----  ----  ----  ----   ----- 
Tue 07:30  ENE 17/ 30 --------  ------   ----  ----  ----  ----   ----- 
Tue 08:00  ENE 24/ 33 --------  ------   ----  ----  ----  ----   ----- 
Tue 08:30  ENE 28/ 45 --------  ------   ----  ----  ----  ----   ----- 
Tue 08:55  ENE 30/ 48 --------  ------   ----  ----  ----  ----   ----- 
Tue 09:00  ENE 28/ 48 --------  ------   ----  ----  ----  ----   ----- 
Tue 09:30  ENE 30/ 39 --------  ------   ----  ----  ----  ----   ----- 

PEARCE RAAF

Site: 009053
Alt: 40.0m
35km NNE of PERTH CBD


  Time     Wind        Temp  DP   Baro     Rain since   Rain past  Vis(m), Cloud(base in m), Weather
  local        km/h                         9am  last   hr   10m    
Tue 04:00  WNW  7/ 19  19.2  2.6  1017.7    0.0   0.0   0.0   0.0   10000 
Tue 04:30    N  9/ 20  19.6  3.3  1017.8    0.0   0.0   0.0   0.0   10000 
Tue 05:00   NW  7/ 13  19.3  3.9  1018.2    0.0   0.0   0.0   0.0   10000 
Tue 05:30  NNE 11/ 20  19.5  3.6  1018.6    0.0   0.0   0.0   0.0   10000 
Tue 06:00  ENE 13/ 20  19.0  3.6  1018.6    0.0   0.0   0.0   0.0   10000 
Tue 06:30  ENE 17/ 28  18.8  4.2  1018.5    0.0   0.0   0.0   0.0   10000 
Tue 07:00  ENE 19/ 35  19.0  4.4  1018.9    0.0   0.0   0.0   0.0   10000 
Tue 07:30  ENE 17/ 30  19.8  4.3  1018.9    0.0   0.0   0.0   0.0   10000 
Tue 08:00   NE 22/ 41  20.4  4.8  1018.9    0.0   0.0   0.0   0.0   10000 
Tue 08:30   NE 22/ 41  21.3  4.8  1018.9    0.0   0.0   0.0   0.0   10000 
Tue 09:00   NE 19/ 30  22.7  4.7  1018.8    0.0   0.0   0.0   0.0   10000 
Tue 09:30  ENE 20/ 32  24.1  5.0  1018.5    0.0   0.0   0.0   0.0   10000 

PEMBERTON AG STATION

Site: 009GPM
Alt: m
km of


  Time     Wind        Temp  DP   Baro     Rain since   Rain past  Vis(m), Cloud(base in m), Weather
  local        km/h                         9am  last   hr   10m    
Tue 04:00  ENE  9/ 22  11.5  9.3  ------    0.0   0.0   0.0   0.0   ----- 
Tue 04:30  ENE  7/ 17  11.4  9.3  ------    0.0   0.0   0.0   0.0   ----- 
Tue 05:00  ENE 11/ 20  11.4  9.4  ------    0.0   0.0   0.0   0.0   ----- 
Tue 05:30  ENE 15/ 22  11.3  9.4  ------    0.0   0.0   0.0   0.0   ----- 
Tue 06:00  ENE  9/ 17  11.0  9.3  ------    0.0   0.0   0.0   0.0   ----- 
Tue 06:30  ENE 11/ 22  10.9  9.3  ------    0.0   0.0   0.0   0.0   ----- 
Tue 07:00  ENE  9/ 17  11.1  9.4  ------    0.0   0.0   0.0   0.0   ----- 
Tue 07:30  ENE  9/ 15  12.7 10.1  ------    0.0   0.0   0.0   0.0   ----- 
Tue 08:00   NE  9/ 22  14.3 10.0  ------    0.0   0.0   0.0   0.0   ----- 
Tue 08:30   NE 13/ 24  15.4 10.0  ------    0.0   0.0   0.0   0.0   ----- 
Tue 09:00  ENE 11/ 19  17.7 10.8  ------    0.0   0.0   0.0   0.0   ----- 
Tue 09:30   NE 13/ 19  19.1 10.5  ------    0.0   0.0   0.0   0.0   ----- 

PERTH AIRPORT

Site: 009021
Alt: 15.4m
11km ENE of PERTH CBD


  Time     Wind        Temp  DP   Baro     Rain since   Rain past  Vis(m), Cloud(base in m), Weather
  local        km/h                         9am  last   hr   10m    
Tue 04:00    E 22/ 28  17.2  3.0  1017.9    0.0   0.0   0.0   0.0   10000 
Tue 04:30    E 30/ 41  16.7  3.2  1017.8    0.0   0.0   0.0   0.0   10000 
Tue 05:00  ENE 32/ 41  16.4  3.3  1018.3    0.0   0.0   0.0   0.0   10000 
Tue 05:30    E 28/ 33  15.8  3.6  1018.7    0.0   0.0   0.0   0.0   10000 
Tue 06:00    E 28/ 37  15.6  4.2  1018.7    0.0   0.0   0.0   0.0   10000 
Tue 06:30  ENE 28/ 35  15.4  4.7  1018.7    0.0   0.0   0.0   0.0   10000 
Tue 07:00    E 28/ 33  16.0  4.7  1019.0    0.0   0.0   0.0   0.0   10000 
Tue 07:30    E 32/ 39  16.8  4.8  1019.0    0.0   0.0   0.0   0.0   10000 
Tue 08:00    E 28/ 33  18.4  4.9  1019.1    0.0   0.0   0.0   0.0   10000 
Tue 08:30  ENE 17/ 26  20.9  4.4  1019.3    0.0   0.0   0.0   0.0   10000 
Tue 09:00   NE 32/ 39  22.8  4.2  1018.8    0.0   0.0   0.0   0.0   10000 
Tue 09:30   NE 28/ 35  23.7  3.9  1018.6    0.0   0.0   0.0   0.0   10000 

PERTH METRO

Site: 009225
Alt: 24.9m
4km NNE of PERTH CBD


  Time     Wind        Temp  DP   Baro     Rain since   Rain past  Vis(m), Cloud(base in m), Weather
  local        km/h                         9am  last   hr   10m    
Tue 04:00  ESE  7/ 15  17.9  4.8  1017.9    0.0   0.0   0.0   0.0   ----- 
Tue 04:30    E  6/ 13  16.6  4.9  1017.9    0.0   0.0   0.0   0.0   ----- 
Tue 05:00    E  6/  9  15.8  5.4  1018.5    0.0   0.0   0.0   0.0   ----- 
Tue 05:30    E  6/ 11  15.2  5.1  1018.8    0.0   0.0   0.0   0.0   ----- 
Tue 06:00  ESE  7/ 17  15.1  5.6  1018.7    0.0   0.0   0.0   0.0   ----- 
Tue 06:30  ESE  7/ 15  15.0  5.5  1018.9    0.0   0.0   0.0   0.0   ----- 
Tue 07:00  ESE  7/ 13  15.4  6.2  1019.2    0.0   0.0   0.0   0.0   ----- 
Tue 07:30  ESE  9/ 15  17.3  6.8  1019.1    0.0   0.0   0.0   0.0   ----- 
Tue 08:00    E  6/  9  19.4  7.5  1019.2    0.0   0.0   0.0   0.0   ----- 
Tue 08:30  ENE  9/ 15  21.6  7.1  1019.4    0.0   0.0   0.0   0.0   ----- 
Tue 09:00  ENE 13/ 26  23.0  7.9  1018.9    0.0   0.0   0.0   0.0   ----- 
Tue 09:30   NE 15/ 26  24.2  7.8  1018.6    0.0   0.0   0.0   0.0   ----- 

ROCKY GULLY

Site: 009964
Alt: 250.0m
87km ESE of MANJIMUP


  Time     Wind        Temp  DP   Baro     Rain since   Rain past  Vis(m), Cloud(base in m), Weather
  local        km/h                         9am  last   hr   10m    
Tue 04:00  NNE 11/ 20  11.4  9.3  ------    0.0   0.0   0.0   0.0   ----- 
Tue 04:30   NE 11/ 22  11.5  9.4  ------    0.0   0.0   0.0   0.0   ----- 
Tue 05:00  NNE  9/ 20  11.5  9.4  ------    0.0   0.0   0.0   0.0   ----- 
Tue 05:30   NE  9/ 19  11.5  9.4  ------    0.0   0.0   0.0   0.0   ----- 
Tue 06:00  NNE  9/ 24  11.8  9.7  ------    0.0   0.0   0.0   0.0   ----- 
Tue 06:30  ENE 13/ 26  11.8  9.5  ------    0.0   0.0   0.0   0.0   ----- 
Tue 07:00   NE 11/ 22  11.8  9.4  ------    0.0   0.0   0.0   0.0   ----- 
Tue 07:30   NE 11/ 19  12.6  9.8  ------    0.0   0.0   0.0   0.0   ----- 
Tue 08:00  NNE 11/ 20  13.6 10.0  ------    0.0   0.0   0.0   0.0   ----- 
Tue 08:30   NE 11/ 17  14.8 10.0  ------    0.0   0.0   0.0   0.0   ----- 
Tue 09:00  NNE 11/ 20  16.3  9.9  ------    0.0   0.0   0.0   0.0   ----- 
Tue 09:30   NE 13/ 24  17.5  9.9  ------    0.0   0.0   0.0   0.0   ----- 

ROTTNEST ISLAND

Site: 009193
Alt: 43.1m
34km W of PERTH CBD


  Time     Wind        Temp  DP   Baro     Rain since   Rain past  Vis(m), Cloud(base in m), Weather
  local        km/h                         9am  last   hr   10m    
Tue 04:00    E 22/ 32  20.1  7.1  1017.6    0.0   0.0   0.0   0.0   ----- 
Tue 04:30    E 19/ 28  19.6  8.0  1017.8    0.0   0.0   0.0   0.0   ----- 
Tue 05:00    E 19/ 24  18.8  7.3  1018.0    0.0   0.0   0.0   0.0   ----- 
Tue 05:30    E 22/ 28  18.4  7.5  1018.0    0.0   0.0   0.0   0.0   ----- 
Tue 06:00    E 20/ 26  17.9  7.6  1018.3    0.0   0.0   0.0   0.0   ----- 
Tue 06:30    E 22/ 30  17.9  7.9  1018.4    0.0   0.0   0.0   0.0   ----- 
Tue 07:00    E 24/ 30  18.3  8.3  1018.5    0.0   0.0   0.0   0.0   ----- 
Tue 07:30    E 20/ 35  18.8  8.2  1018.7    0.0   0.0   0.0   0.0   ----- 
Tue 08:00    E 24/ 33  19.4  8.1  1018.8    0.0   0.0   0.0   0.0   ----- 
Tue 08:30    E 22/ 33  20.4  8.4  1018.6    0.0   0.0   0.0   0.0   ----- 
Tue 09:00    E 26/ 33  20.9  8.2  1018.4    0.0   0.0   0.0   0.0   ----- 
Tue 09:30  ENE 22/ 32  21.9  9.1  1018.0    0.0   0.0   0.0   0.0   ----- 

SCOTT RIVER AG STATION

Site: 009CTR
Alt: 30m
72km WNW of PEMBERTON


  Time     Wind        Temp  DP   Baro     Rain since   Rain past  Vis(m), Cloud(base in m), Weather
  local        km/h                         9am  last   hr   10m    
Tue 04:00    C  0/  2   7.0  6.5  ------    0.0   0.0   0.0   0.0   ----- 
Tue 04:30    C  0/  0   4.8  4.3  ------    0.0   0.0   0.0   0.0   ----- 
Tue 05:00    C  0/  0   5.6  5.2  ------    0.0   0.0   0.0   0.0   ----- 

Tue 05:30    C  0/  2   4.1  3.8  ------    0.0   0.0   0.0   0.0   ----- 
Tue 06:00    C  0/  4   4.0  3.8  ------    0.0   0.0   0.0   0.0   ----- 
Tue 06:30   NE  2/  4   3.7  3.5  ------    0.0   0.0   0.0   0.0   ----- 
Tue 07:00    C  0/  4   5.9  5.9  ------    0.0   0.0   0.0   0.0   ----- 
Tue 07:30    C  0/  0   9.5  9.4  ------    0.0   0.0   0.0   0.0   ----- 
Tue 08:00   NE  2/  6  12.5 12.0  ------    0.0   0.0   0.0   0.0   ----- 
Tue 08:30  NNE  9/ 15  15.8 10.6  ------    0.0   0.0   0.0   0.0   ----- 
Tue 09:00  NNE  9/ 17  17.4 10.9  ------    0.0   0.0   0.0   0.0   ----- 
Tue 09:30  NNE  6/ 13  19.3 10.6  ------    0.0   0.0   0.0   0.0   ----- 

SHANNON

Site: 009968
Alt: 210.0m
40km SSE of MANJIMUP


  Time     Wind        Temp  DP   Baro     Rain since   Rain past  Vis(m), Cloud(base in m), Weather
  local        km/h                         9am  last   hr   10m    
Tue 04:00   NE 17/ 22  10.8 11.1  ------    0.0   0.0   0.0   0.0   ----- 
Tue 05:00   NE 19/ 24  11.0 11.3  ------    0.0   0.0   0.0   0.0   ----- 
Tue 06:00  ENE 19/ 26  11.1 11.4  ------    0.0   0.0   0.0   0.0   ----- 
Tue 07:00   NE 19/ 26  11.3 11.5  ------    0.0   0.0   0.0   0.0   ----- 
Tue 08:00   NE 17/ 22  13.3 13.5  ------    0.0   0.0   0.0   0.0   ----- 
Tue 09:00   NE 13/ 17  16.5 16.7  ------    0.0   0.0   0.0   0.0   ----- 

SOUTH PERTH AG STATION

Site: 009GSP
Alt: m
km of


  Time     Wind        Temp  DP   Baro     Rain since   Rain past  Vis(m), Cloud(base in m), Weather
  local        km/h                         9am  last   hr   10m    
Tue 04:00    E  6/ 15  19.0  3.5  ------    0.0   0.0   0.0   0.0   ----- 
Tue 04:30    E  4/ 13  18.3  3.6  ------    0.0   0.0   0.0   0.0   ----- 
Tue 05:00  ENE  2/  6  17.2  4.1  ------    0.0   0.0   0.0   0.0   ----- 
Tue 05:30    E  6/ 20  17.4  4.5  ------    0.0   0.0   0.0   0.0   ----- 
Tue 06:00  ENE  4/ 13  16.9  4.9  ------    0.0   0.0   0.0   0.0   ----- 
Tue 06:30    E  4/ 11  16.8  5.1  ------    0.0   0.0   0.0   0.0   ----- 
Tue 07:00    E  4/ 11  17.8  5.2  ------    0.0   0.0   0.0   0.0   ----- 
Tue 07:30    E  7/ 17  18.6  5.3  ------    0.0   0.0   0.0   0.0   ----- 
Tue 08:00    E  6/ 17  19.1  5.5  ------    0.0   0.0   0.0   0.0   ----- 
Tue 08:30  ENE  6/ 13  19.9  5.7  ------    0.0   0.0   0.0   0.0   ----- 
Tue 09:00    E  7/ 19  21.8  6.0  ------    0.0   0.0   0.0   0.0   ----- 
Tue 09:30  ENE  6/ 17  24.0  5.6  ------    0.0   0.0   0.0   0.0   ----- 

STIRLINGS SOUTH AG STATION

Site: 009LGS
Alt: 150m
26km ENE of MOUNT BARKER


  Time     Wind        Temp  DP   Baro     Rain since   Rain past  Vis(m), Cloud(base in m), Weather
  local        km/h                         9am  last   hr   10m    
Tue 04:00    S  4/  6   9.0  9.0  ------    0.0   0.0   0.0   0.0   ----- 
Tue 04:30    S  4/  6   8.6  8.6  ------    0.0   0.0   0.0   0.0   ----- 
Tue 05:00  SSW  4/  6   8.7  8.7  ------    0.0   0.0   0.0   0.0   ----- 
Tue 05:30    S  4/  6   7.8  7.8  ------    0.0   0.0   0.0   0.0   ----- 
Tue 06:00    C  0/  4   8.0  8.0  ------    0.0   0.0   0.0   0.0   ----- 
Tue 06:30    S  4/  6   8.4  8.4  ------    0.0   0.0   0.0   0.0   ----- 
Tue 07:00  SSW  2/  2  11.2 11.2  ------    0.0   0.0   0.0   0.0   ----- 
Tue 07:30    E  6/  9  12.7 12.7  ------    0.0   0.0   0.0   0.0   ----- 
Tue 08:00  ENE  4/  7  15.1 15.0  ------    0.0   0.0   0.0   0.0   ----- 
Tue 08:30  ENE  9/ 19  16.7 14.3  ------    0.0   0.0   0.0   0.0   ----- 
Tue 09:00  ENE  9/ 17  17.9 13.8  ------    0.0   0.0   0.0   0.0   ----- 
Tue 09:30   NE  7/ 13  19.4 13.4  ------    0.0   0.0   0.0   0.0   ----- 

SWANBOURNE

Site: 009215
Alt: 41.0m
9km E of PERTH CBD


  Time     Wind        Temp  DP   Baro     Rain since   Rain past  Vis(m), Cloud(base in m), Weather
  local        km/h                         9am  last   hr   10m    
Tue 04:00    E 11/ 19  18.7  3.7  ------    0.0   0.0   0.0   0.0   ----- 
Tue 04:30    E 11/ 19  17.9  3.8  ------    0.0   0.0   0.0   0.0   ----- 
Tue 05:00    E  7/ 13  16.9  3.6  ------    0.0   0.0   0.0   0.0   ----- 
Tue 05:30    E 11/ 15  16.0  4.1  ------    0.0   0.0   0.0   0.0   ----- 
Tue 06:00    E 15/ 20  16.1  4.5  ------    0.0   0.0   0.0   0.0   ----- 
Tue 06:30    E 13/ 20  16.1  4.8  ------    0.0   0.0   0.0   0.0   ----- 
Tue 07:00    E 17/ 22  16.6  5.3  ------    0.0   0.0   0.0   0.0   ----- 
Tue 07:30    E 20/ 30  17.9  5.2  ------    0.0   0.0   0.0   0.0   ----- 
Tue 08:00    E 19/ 32  19.2  5.6  ------    0.0   0.0   0.0   0.0   ----- 
Tue 08:30    E 13/ 19  20.7  5.5  ------    0.0   0.0   0.0   0.0   ----- 
Tue 09:00  ENE 22/ 37  22.6  5.5  ------    0.0   0.0   0.0   0.0   ----- 
Tue 09:30  ENE 19/ 33  24.4  5.7  ------    0.0   0.0   0.0   0.0   ----- 

VASSE AG STATION

Site: 009GVA
Alt: m
11km SSE of BUSSELTON


  Time     Wind        Temp  DP   Baro     Rain since   Rain past  Vis(m), Cloud(base in m), Weather
  local        km/h                         9am  last   hr   10m    
Tue 04:00    C  0/  2  11.8  9.9  ------    0.0   0.0   0.0   0.0   ----- 
Tue 04:30    C  0/  2  11.1  9.9  ------    0.0   0.0   0.0   0.0   ----- 
Tue 05:00    S  2/  2  10.7 10.1  ------    0.0   0.0   0.0   0.0   ----- 
Tue 05:30    S  2/  4  10.3 10.2  ------    0.0   0.0   0.0   0.0   ----- 
Tue 06:00    S  2/  4   9.6  9.5  ------    0.0   0.0   0.0   0.0   ----- 
Tue 06:30    S  2/  4   9.1  9.0  ------    0.0   0.0   0.0   0.0   ----- 
Tue 07:00    C  0/  4  10.1 10.0  ------    0.0   0.0   0.0   0.0   ----- 
Tue 07:30    C  0/  2  12.1 12.0  ------    0.0   0.0   0.0   0.0   ----- 
Tue 08:00    E  2/  9  15.6 11.0  ------    0.0   0.0   0.0   0.0   ----- 
Tue 08:30    E  4/  9  17.8 10.3  ------    0.0   0.0   0.0   0.0   ----- 
Tue 09:00  ENE  7/ 19  19.5  9.5  ------    0.0   0.0   0.0   0.0   ----- 
Tue 09:30  ENE  7/ 20  21.5  8.6  ------    0.0   0.0   0.0   0.0   ----- 

WANNEROO AG STATION

Site: 009GWN
Alt: m
km of


  Time     Wind        Temp  DP   Baro     Rain since   Rain past  Vis(m), Cloud(base in m), Weather
  local        km/h                         9am  last   hr   10m    
Tue 04:00    E  6/ 13  17.3  4.7  ------    0.0   0.0   0.0   0.0   ----- 
Tue 04:30    C  0/  4  15.8  4.7  ------    0.0   0.0   0.0   0.0   ----- 
Tue 05:00  ESE  4/  7  16.1  4.6  ------    0.0   0.0   0.0   0.0   ----- 
Tue 05:30    E  4/  7  14.9  5.1  ------    0.0   0.0   0.0   0.0   ----- 
Tue 06:00    E  2/  7  15.3  4.8  ------    0.0   0.0   0.0   0.0   ----- 
Tue 06:30  ESE  4/  9  15.6  5.1  ------    0.0   0.0   0.0   0.0   ----- 
Tue 07:00    E  2/  9  16.1  5.7  ------    0.0   0.0   0.0   0.0   ----- 
Tue 07:30  ENE  4/ 15  19.5  5.4  ------    0.0   0.0   0.0   0.0   ----- 
Tue 08:00  ENE  9/ 22  20.9  6.0  ------    0.0   0.0   0.0   0.0   ----- 
Tue 08:30  ENE  9/ 28  22.8  7.0  ------    0.0   0.0   0.0   0.0   ----- 
Tue 09:00  ENE 11/ 22  23.9  6.7  ------    0.0   0.0   0.0   0.0   ----- 
Tue 09:30   NE 11/ 26  25.2  6.6  ------    0.0   0.0   0.0   0.0   ----- 

WAROONA

Site: 009GWR
Alt: 36 m
39km SSE of MANDURAH


  Time     Wind        Temp  DP   Baro     Rain since   Rain past  Vis(m), Cloud(base in m), Weather
  local        km/h                         9am  last   hr   10m    
Tue 04:00    E 11/---  15.9  7.0  ------    0.0   0.0   0.0   0.0   ----- 
Tue 04:30    E 11/---  15.8  6.8  ------    0.0   0.0   0.0   0.0   ----- 
Tue 05:00  NNE  7/---  15.6  6.9  ------    0.0   0.0   0.0   0.0   ----- 
Tue 05:30  ENE  9/---  15.6  6.9  ------    0.0   0.0   0.0   0.0   ----- 
Tue 06:00    E 11/---  15.5  6.9  ------    0.0   0.0   0.0   0.0   ----- 
Tue 06:30    E  9/---  15.2  6.6  ------    0.0   0.0   0.0   0.0   ----- 
Tue 07:00    E 13/---  15.9  6.7  ------    0.0   0.0   0.0   0.0   ----- 
Tue 07:30    E 11/---  17.0  6.9  ------    0.0   0.0   0.0   0.0   ----- 
Tue 08:00  ENE  9/---  19.2  6.0  ------    0.0   0.0   0.0   0.0   ----- 
Tue 08:30   NE 17/---  20.3  5.6  ------    0.0   0.0   0.0   0.0   ----- 
Tue 09:00   NE 13/---  21.9  5.7  ------    0.0   0.0   0.0   0.0   ----- 
Tue 09:30  ENE 13/---  23.5  5.7  ------    0.0   0.0   0.0   0.0   ----- 

WELLSTEAD AG STATION

Site: 009GWE
Alt: m
89km NE of ALBANY


  Time     Wind        Temp  DP   Baro     Rain since   Rain past  Vis(m), Cloud(base in m), Weather
  local        km/h                         9am  last   hr   10m    
Tue 04:00  ENE  2/  6  12.6 11.0  ------    0.0   0.0   0.0   0.0   ----- 
Tue 04:30   NE  2/  6  12.7 11.0  ------    0.0   0.0   0.0   0.0   ----- 
Tue 05:00  ENE  4/  7  12.1 10.4  ------    0.0   0.0   0.0   0.0   ----- 
Tue 05:30  ENE  4/  7  11.4 10.0  ------    0.0   0.0   0.0   0.0   ----- 
Tue 06:00  ENE  6/  9  11.5  9.9  ------    0.0   0.0   0.0   0.0   ----- 
Tue 06:30  ENE  7/ 13  11.8  9.7  ------    0.0   0.0   0.0   0.0   ----- 
Tue 07:00  ENE  9/ 15  13.1 10.2  ------    0.0   0.0   0.0   0.0   ----- 
Tue 07:30  ENE 11/ 22  14.1 10.3  ------    0.0   0.0   0.0   0.0   ----- 
Tue 08:00   NE 13/ 24  15.2 10.6  ------    0.0   0.0   0.0   0.0   ----- 
Tue 08:30   NE 13/ 24  15.9 10.5  ------    0.0   0.0   0.0   0.0   ----- 
Tue 09:00   NE 13/ 20  16.8 10.5  ------    0.0   0.0   0.0   0.0   ----- 
Tue 09:30   NE 11/ 28  18.1 10.8  ------    0.0   0.0   0.0   0.0   ----- 

WILYABRUP AG STATION

Site: 009LBP
Alt: 100m
30km SW of BUSSELTON


  Time     Wind        Temp  DP   Baro     Rain since   Rain past  Vis(m), Cloud(base in m), Weather
  local        km/h                         9am  last   hr   10m    
Tue 04:00  ENE 11/ 20  13.8  8.4  ------    0.0   0.0   0.0   0.0   ----- 
Tue 04:30    E 11/ 19  13.7  8.3  ------    0.0   0.0   0.0   0.0   ----- 
Tue 05:00  ENE 11/ 22  13.6  8.2  ------    0.0   0.0   0.0   0.0   ----- 
Tue 05:30  ENE 13/ 26  13.4  8.2  ------    0.0   0.0   0.0   0.0   ----- 
Tue 06:00  ENE 13/ 22  13.3  8.3  ------    0.0   0.0   0.0   0.0   ----- 
Tue 06:30  ENE 13/ 22  13.0  8.2  ------    0.0   0.0   0.0   0.0   ----- 
Tue 07:00  ENE 15/ 26  13.5  8.4  ------    0.0   0.0   0.0   0.0   ----- 
Tue 07:30  ENE 15/ 28  14.2  8.4  ------    0.0   0.0   0.0   0.0   ----- 
Tue 08:00  ENE 13/ 22  15.4  9.0  ------    0.0   0.0   0.0   0.0   ----- 
Tue 08:00  ENE 13/ 22  15.4  9.0  ------    0.0   0.0  ----   0.0   ----- 
Tue 08:30  ENE 15/ 26  16.3  8.7  ------    0.0   0.0   0.0   0.0   ----- 
Tue 09:00  ENE 15/ 30  17.7  8.6  ------    0.0   0.0   0.0   0.0   ----- 
Tue 09:00  ENE 15/ 30  17.7  8.6  ------    0.0   0.0  ----   0.0   ----- 
Tue 09:30  ENE 13/ 26  19.7  8.4  ------    0.0   0.0   0.0   0.0   ----- 

WITCHCLIFFE

Site: 009746
Alt: 80.0m
9km SSE of MARGARET RIVER


  Time     Wind        Temp  DP   Baro     Rain since   Rain past  Vis(m), Cloud(base in m), Weather
  local        km/h                         9am  last   hr   10m    
Tue 04:00   SE  7/ 11  10.9  8.8  1020.4    0.0   0.0   0.0   0.0   ----- 
Tue 04:30  ESE  4/  7  10.0  8.1  1020.6    0.0   0.0   0.0   0.0   ----- 
Tue 05:00   SE  7/ 11   9.5  7.9  1020.4    0.0   0.0   0.0   0.0   ----- 
Tue 05:30   SE  7/  9   9.5  8.1  1020.5    0.0   0.0   0.0   0.0   ----- 
Tue 06:00   SE  7/  9   9.5  8.4  1020.7    0.0   0.0   0.0   0.0   ----- 
Tue 06:30   SE  4/  7   9.0  7.8  1020.7    0.0   0.0   0.0   0.0   ----- 
Tue 07:00   SE  2/  7   9.9  9.0  1020.9    0.0   0.0   0.0   0.0   ----- 
Tue 07:30   SE  6/  9  11.2  9.6  1021.0    0.0   0.0   0.0   0.0   ----- 
Tue 08:00  ENE  9/ 17  14.4 10.4  1021.1    0.0   0.0   0.0   0.0   ----- 
Tue 08:30  ENE 11/ 17  15.9 10.0  1020.7    0.0   0.0   0.0   0.0   ----- 
Tue 09:00   NE 15/ 22  17.6  9.8  1020.6    0.0   0.0   0.0   0.0   ----- 
Tue 09:30   NE 15/ 20  19.6  8.6  1020.5    0.0   0.0   0.0   0.0   -----